<?xml version="1.0" encoding="UTF-8" standalone="no" ?>
<gpx xmlns="http://www.topografix.com/GPX/1/1" xmlns:xsi="http://www.w3.org/2001/XMLSchema-instance" xsi:schemaLocation="http://www.topografix.com/GPX/1/1 http://www.topografix.com/GPX/1/1/gpx.xsd" version="1.1" creator="VisuGPX - https://www.visugpx.com">
  <metadata>
    <name>Pilatrack 2014 - Poursuite</name>
    <desc><![CDATA[Trace de la poursuite de la pilatrack 2014 : du beau single pentu, technique et ludique]]></desc>
  </metadata>
  <trk>
    <name><![CDATA[05-OCT-14 03:32:49 PM]]></name>
    <trkseg>
      <trkpt lat="45.38891" lon="4.57942">
        <ele>1374.34</ele>
        <time>2014-10-05T12:29:41Z</time>
      </trkpt>
      <trkpt lat="45.38891" lon="4.57942">
        <ele>1392.13</ele>
        <time>2014-10-05T12:29:42Z</time>
      </trkpt>
      <trkpt lat="45.38891" lon="4.57942">
        <ele>1382.03</ele>
        <time>2014-10-05T12:29:43Z</time>
      </trkpt>
      <trkpt lat="45.38889" lon="4.57943">
        <ele>1374.82</ele>
        <time>2014-10-05T12:29:54Z</time>
      </trkpt>
      <trkpt lat="45.38889" lon="4.57944">
        <ele>1387.8</ele>
        <time>2014-10-05T12:29:55Z</time>
      </trkpt>
      <trkpt lat="45.38888" lon="4.57944">
        <ele>1382.03</ele>
        <time>2014-10-05T12:29:56Z</time>
      </trkpt>
      <trkpt lat="45.38886" lon="4.57945">
        <ele>1381.55</ele>
        <time>2014-10-05T12:30:16Z</time>
      </trkpt>
      <trkpt lat="45.38884" lon="4.57946">
        <ele>1382.03</ele>
        <time>2014-10-05T12:30:40Z</time>
      </trkpt>
      <trkpt lat="45.38883" lon="4.57946">
        <ele>1381.55</ele>
        <time>2014-10-05T12:31:06Z</time>
      </trkpt>
      <trkpt lat="45.38883" lon="4.57946">
        <ele>1382.99</ele>
        <time>2014-10-05T12:31:12Z</time>
      </trkpt>
      <trkpt lat="45.38885" lon="4.57945">
        <ele>1383.47</ele>
        <time>2014-10-05T12:31:16Z</time>
      </trkpt>
      <trkpt lat="45.38892" lon="4.57939">
        <ele>1381.55</ele>
        <time>2014-10-05T12:31:27Z</time>
      </trkpt>
      <trkpt lat="45.38892" lon="4.57938">
        <ele>1380.59</ele>
        <time>2014-10-05T12:31:34Z</time>
      </trkpt>
      <trkpt lat="45.38892" lon="4.57938">
        <ele>1380.59</ele>
        <time>2014-10-05T12:31:57Z</time>
      </trkpt>
      <trkpt lat="45.38892" lon="4.57938">
        <ele>1380.59</ele>
        <time>2014-10-05T12:32:27Z</time>
      </trkpt>
      <trkpt lat="45.38892" lon="4.57938">
        <ele>1380.59</ele>
        <time>2014-10-05T12:32:56Z</time>
      </trkpt>
      <trkpt lat="45.38892" lon="4.57937">
        <ele>1381.55</ele>
        <time>2014-10-05T12:33:20Z</time>
      </trkpt>
      <trkpt lat="45.38892" lon="4.57937">
        <ele>1382.03</ele>
        <time>2014-10-05T12:33:41Z</time>
      </trkpt>
      <trkpt lat="45.38892" lon="4.57936">
        <ele>1382.51</ele>
        <time>2014-10-05T12:34:00Z</time>
      </trkpt>
      <trkpt lat="45.38892" lon="4.57936">
        <ele>1382.51</ele>
        <time>2014-10-05T12:34:28Z</time>
      </trkpt>
      <trkpt lat="45.38893" lon="4.57936">
        <ele>1382.51</ele>
        <time>2014-10-05T12:34:50Z</time>
      </trkpt>
      <trkpt lat="45.38893" lon="4.57936">
        <ele>1382.51</ele>
        <time>2014-10-05T12:35:08Z</time>
      </trkpt>
      <trkpt lat="45.38893" lon="4.57936">
        <ele>1382.03</ele>
        <time>2014-10-05T12:35:30Z</time>
      </trkpt>
      <trkpt lat="45.38893" lon="4.57936">
        <ele>1382.51</ele>
        <time>2014-10-05T12:35:57Z</time>
      </trkpt>
      <trkpt lat="45.38893" lon="4.57936">
        <ele>1382.51</ele>
        <time>2014-10-05T12:36:14Z</time>
      </trkpt>
      <trkpt lat="45.38891" lon="4.57937">
        <ele>1382.99</ele>
        <time>2014-10-05T12:36:28Z</time>
      </trkpt>
      <trkpt lat="45.38889" lon="4.5794">
        <ele>1382.99</ele>
        <time>2014-10-05T12:36:31Z</time>
      </trkpt>
      <trkpt lat="45.38884" lon="4.57944">
        <ele>1383.47</ele>
        <time>2014-10-05T12:36:38Z</time>
      </trkpt>
      <trkpt lat="45.38879" lon="4.5795">
        <ele>1383.47</ele>
        <time>2014-10-05T12:36:55Z</time>
      </trkpt>
      <trkpt lat="45.38878" lon="4.57951">
        <ele>1383.96</ele>
        <time>2014-10-05T12:37:11Z</time>
      </trkpt>
      <trkpt lat="45.38873" lon="4.57954">
        <ele>1383.96</ele>
        <time>2014-10-05T12:37:22Z</time>
      </trkpt>
      <trkpt lat="45.38868" lon="4.57951">
        <ele>1384.44</ele>
        <time>2014-10-05T12:37:31Z</time>
      </trkpt>
      <trkpt lat="45.38868" lon="4.5795">
        <ele>1384.44</ele>
        <time>2014-10-05T12:37:43Z</time>
      </trkpt>
      <trkpt lat="45.38868" lon="4.5795">
        <ele>1384.44</ele>
        <time>2014-10-05T12:37:55Z</time>
      </trkpt>
      <trkpt lat="45.38868" lon="4.5795">
        <ele>1384.44</ele>
        <time>2014-10-05T12:38:10Z</time>
      </trkpt>
      <trkpt lat="45.38868" lon="4.57949">
        <ele>1383.96</ele>
        <time>2014-10-05T12:38:23Z</time>
      </trkpt>
      <trkpt lat="45.38868" lon="4.5795">
        <ele>1383.96</ele>
        <time>2014-10-05T12:38:34Z</time>
      </trkpt>
      <trkpt lat="45.38869" lon="4.5795">
        <ele>1383.47</ele>
        <time>2014-10-05T12:38:52Z</time>
      </trkpt>
      <trkpt lat="45.38868" lon="4.5795">
        <ele>1384.92</ele>
        <time>2014-10-05T12:39:15Z</time>
      </trkpt>
      <trkpt lat="45.38868" lon="4.57949">
        <ele>1383.96</ele>
        <time>2014-10-05T12:39:33Z</time>
      </trkpt>
      <trkpt lat="45.38869" lon="4.57951">
        <ele>1384.44</ele>
        <time>2014-10-05T12:39:51Z</time>
      </trkpt>
      <trkpt lat="45.38873" lon="4.57952">
        <ele>1385.88</ele>
        <time>2014-10-05T12:39:59Z</time>
      </trkpt>
      <trkpt lat="45.38874" lon="4.57951">
        <ele>1384.44</ele>
        <time>2014-10-05T12:40:10Z</time>
      </trkpt>
      <trkpt lat="45.38878" lon="4.5795">
        <ele>1384.92</ele>
        <time>2014-10-05T12:40:17Z</time>
      </trkpt>
      <trkpt lat="45.38882" lon="4.57946">
        <ele>1383.96</ele>
        <time>2014-10-05T12:40:28Z</time>
      </trkpt>
      <trkpt lat="45.38882" lon="4.57946">
        <ele>1384.44</ele>
        <time>2014-10-05T12:40:43Z</time>
      </trkpt>
      <trkpt lat="45.38882" lon="4.57946">
        <ele>1383.96</ele>
        <time>2014-10-05T12:41:06Z</time>
      </trkpt>
      <trkpt lat="45.38888" lon="4.57943">
        <ele>1384.44</ele>
        <time>2014-10-05T12:41:11Z</time>
      </trkpt>
      <trkpt lat="45.38896" lon="4.57936">
        <ele>1382.99</ele>
        <time>2014-10-05T12:41:24Z</time>
      </trkpt>
      <trkpt lat="45.38896" lon="4.57936">
        <ele>1382.99</ele>
        <time>2014-10-05T12:41:45Z</time>
      </trkpt>
      <trkpt lat="45.38896" lon="4.57936">
        <ele>1382.99</ele>
        <time>2014-10-05T12:42:13Z</time>
      </trkpt>
      <trkpt lat="45.38896" lon="4.57936">
        <ele>1382.99</ele>
        <time>2014-10-05T12:42:39Z</time>
      </trkpt>
      <trkpt lat="45.38896" lon="4.57936">
        <ele>1382.99</ele>
        <time>2014-10-05T12:42:59Z</time>
      </trkpt>
      <trkpt lat="45.38896" lon="4.57936">
        <ele>1382.99</ele>
        <time>2014-10-05T12:43:02Z</time>
      </trkpt>
      <trkpt lat="45.389" lon="4.57933">
        <ele>1383.47</ele>
        <time>2014-10-05T12:43:04Z</time>
      </trkpt>
      <trkpt lat="45.38954" lon="4.57888">
        <ele>1380.11</ele>
        <time>2014-10-05T12:43:12Z</time>
      </trkpt>
      <trkpt lat="45.38989" lon="4.57857">
        <ele>1376.26</ele>
        <time>2014-10-05T12:43:16Z</time>
      </trkpt>
      <trkpt lat="45.39006" lon="4.57843">
        <ele>1374.82</ele>
        <time>2014-10-05T12:43:18Z</time>
      </trkpt>
      <trkpt lat="45.39033" lon="4.57821">
        <ele>1370.98</ele>
        <time>2014-10-05T12:43:21Z</time>
      </trkpt>
      <trkpt lat="45.3905" lon="4.57805">
        <ele>1369.54</ele>
        <time>2014-10-05T12:43:23Z</time>
      </trkpt>
      <trkpt lat="45.39077" lon="4.57779">
        <ele>1366.17</ele>
        <time>2014-10-05T12:43:26Z</time>
      </trkpt>
      <trkpt lat="45.39096" lon="4.57761">
        <ele>1362.81</ele>
        <time>2014-10-05T12:43:28Z</time>
      </trkpt>
      <trkpt lat="45.39127" lon="4.57733">
        <ele>1359.44</ele>
        <time>2014-10-05T12:43:31Z</time>
      </trkpt>
      <trkpt lat="45.39147" lon="4.57715">
        <ele>1354.15</ele>
        <time>2014-10-05T12:43:33Z</time>
      </trkpt>
      <trkpt lat="45.39164" lon="4.57699">
        <ele>1349.83</ele>
        <time>2014-10-05T12:43:35Z</time>
      </trkpt>
      <trkpt lat="45.39171" lon="4.57692">
        <ele>1345.02</ele>
        <time>2014-10-05T12:43:36Z</time>
      </trkpt>
      <trkpt lat="45.39182" lon="4.5768">
        <ele>1342.62</ele>
        <time>2014-10-05T12:43:38Z</time>
      </trkpt>
      <trkpt lat="45.39206" lon="4.57658">
        <ele>1337.81</ele>
        <time>2014-10-05T12:43:42Z</time>
      </trkpt>
      <trkpt lat="45.39227" lon="4.57639">
        <ele>1334.93</ele>
        <time>2014-10-05T12:43:45Z</time>
      </trkpt>
      <trkpt lat="45.39246" lon="4.57603">
        <ele>1330.6</ele>
        <time>2014-10-05T12:43:49Z</time>
      </trkpt>
      <trkpt lat="45.39248" lon="4.57592">
        <ele>1329.64</ele>
        <time>2014-10-05T12:43:50Z</time>
      </trkpt>
      <trkpt lat="45.39254" lon="4.57528">
        <ele>1324.83</ele>
        <time>2014-10-05T12:43:55Z</time>
      </trkpt>
      <trkpt lat="45.39258" lon="4.57489">
        <ele>1321.47</ele>
        <time>2014-10-05T12:43:58Z</time>
      </trkpt>
      <trkpt lat="45.39265" lon="4.5744">
        <ele>1318.1</ele>
        <time>2014-10-05T12:44:02Z</time>
      </trkpt>
      <trkpt lat="45.39281" lon="4.57352">
        <ele>1316.18</ele>
        <time>2014-10-05T12:44:12Z</time>
      </trkpt>
      <trkpt lat="45.39285" lon="4.57334">
        <ele>1317.62</ele>
        <time>2014-10-05T12:44:15Z</time>
      </trkpt>
      <trkpt lat="45.39287" lon="4.57329">
        <ele>1317.14</ele>
        <time>2014-10-05T12:44:16Z</time>
      </trkpt>
      <trkpt lat="45.39322" lon="4.57278">
        <ele>1314.74</ele>
        <time>2014-10-05T12:44:29Z</time>
      </trkpt>
      <trkpt lat="45.39324" lon="4.57274">
        <ele>1314.74</ele>
        <time>2014-10-05T12:44:30Z</time>
      </trkpt>
      <trkpt lat="45.3933" lon="4.57266">
        <ele>1313.78</ele>
        <time>2014-10-05T12:44:32Z</time>
      </trkpt>
      <trkpt lat="45.39335" lon="4.57262">
        <ele>1312.82</ele>
        <time>2014-10-05T12:44:33Z</time>
      </trkpt>
      <trkpt lat="45.39339" lon="4.57259">
        <ele>1312.34</ele>
        <time>2014-10-05T12:44:34Z</time>
      </trkpt>
      <trkpt lat="45.39344" lon="4.57257">
        <ele>1312.34</ele>
        <time>2014-10-05T12:44:35Z</time>
      </trkpt>
      <trkpt lat="45.39348" lon="4.57254">
        <ele>1311.86</ele>
        <time>2014-10-05T12:44:36Z</time>
      </trkpt>
      <trkpt lat="45.39351" lon="4.5725">
        <ele>1311.86</ele>
        <time>2014-10-05T12:44:37Z</time>
      </trkpt>
      <trkpt lat="45.39355" lon="4.57246">
        <ele>1311.38</ele>
        <time>2014-10-05T12:44:38Z</time>
      </trkpt>
      <trkpt lat="45.3936" lon="4.57243">
        <ele>1310.9</ele>
        <time>2014-10-05T12:44:39Z</time>
      </trkpt>
      <trkpt lat="45.39385" lon="4.57234">
        <ele>1307.05</ele>
        <time>2014-10-05T12:44:46Z</time>
      </trkpt>
      <trkpt lat="45.39392" lon="4.57231">
        <ele>1306.57</ele>
        <time>2014-10-05T12:44:48Z</time>
      </trkpt>
      <trkpt lat="45.39396" lon="4.57228">
        <ele>1307.05</ele>
        <time>2014-10-05T12:44:49Z</time>
      </trkpt>
      <trkpt lat="45.39401" lon="4.57225">
        <ele>1306.57</ele>
        <time>2014-10-05T12:44:50Z</time>
      </trkpt>
      <trkpt lat="45.39423" lon="4.57212">
        <ele>1304.65</ele>
        <time>2014-10-05T12:44:54Z</time>
      </trkpt>
      <trkpt lat="45.39428" lon="4.57208">
        <ele>1304.17</ele>
        <time>2014-10-05T12:44:55Z</time>
      </trkpt>
      <trkpt lat="45.39434" lon="4.57204">
        <ele>1303.69</ele>
        <time>2014-10-05T12:44:56Z</time>
      </trkpt>
      <trkpt lat="45.39439" lon="4.57201">
        <ele>1302.72</ele>
        <time>2014-10-05T12:44:57Z</time>
      </trkpt>
      <trkpt lat="45.39444" lon="4.57197">
        <ele>1301.76</ele>
        <time>2014-10-05T12:44:58Z</time>
      </trkpt>
      <trkpt lat="45.39449" lon="4.57192">
        <ele>1301.28</ele>
        <time>2014-10-05T12:44:59Z</time>
      </trkpt>
      <trkpt lat="45.39455" lon="4.57188">
        <ele>1300.32</ele>
        <time>2014-10-05T12:45:00Z</time>
      </trkpt>
      <trkpt lat="45.39461" lon="4.57185">
        <ele>1299.84</ele>
        <time>2014-10-05T12:45:01Z</time>
      </trkpt>
      <trkpt lat="45.39466" lon="4.57183">
        <ele>1299.36</ele>
        <time>2014-10-05T12:45:02Z</time>
      </trkpt>
      <trkpt lat="45.3947" lon="4.5718">
        <ele>1298.88</ele>
        <time>2014-10-05T12:45:03Z</time>
      </trkpt>
      <trkpt lat="45.39476" lon="4.57177">
        <ele>1297.92</ele>
        <time>2014-10-05T12:45:04Z</time>
      </trkpt>
      <trkpt lat="45.39481" lon="4.57174">
        <ele>1297.44</ele>
        <time>2014-10-05T12:45:05Z</time>
      </trkpt>
      <trkpt lat="45.39492" lon="4.57164">
        <ele>1296.48</ele>
        <time>2014-10-05T12:45:07Z</time>
      </trkpt>
      <trkpt lat="45.39498" lon="4.57159">
        <ele>1296.48</ele>
        <time>2014-10-05T12:45:08Z</time>
      </trkpt>
      <trkpt lat="45.39503" lon="4.57154">
        <ele>1295.03</ele>
        <time>2014-10-05T12:45:09Z</time>
      </trkpt>
      <trkpt lat="45.39527" lon="4.57139">
        <ele>1292.63</ele>
        <time>2014-10-05T12:45:13Z</time>
      </trkpt>
      <trkpt lat="45.39532" lon="4.57137">
        <ele>1291.67</ele>
        <time>2014-10-05T12:45:14Z</time>
      </trkpt>
      <trkpt lat="45.39536" lon="4.57136">
        <ele>1291.67</ele>
        <time>2014-10-05T12:45:15Z</time>
      </trkpt>
      <trkpt lat="45.39549" lon="4.57135">
        <ele>1290.23</ele>
        <time>2014-10-05T12:45:18Z</time>
      </trkpt>
      <trkpt lat="45.39554" lon="4.57136">
        <ele>1290.23</ele>
        <time>2014-10-05T12:45:19Z</time>
      </trkpt>
      <trkpt lat="45.39559" lon="4.57137">
        <ele>1289.75</ele>
        <time>2014-10-05T12:45:20Z</time>
      </trkpt>
      <trkpt lat="45.39563" lon="4.57139">
        <ele>1289.27</ele>
        <time>2014-10-05T12:45:21Z</time>
      </trkpt>
      <trkpt lat="45.39567" lon="4.57141">
        <ele>1288.78</ele>
        <time>2014-10-05T12:45:22Z</time>
      </trkpt>
      <trkpt lat="45.39571" lon="4.57141">
        <ele>1287.82</ele>
        <time>2014-10-05T12:45:23Z</time>
      </trkpt>
      <trkpt lat="45.39574" lon="4.57142">
        <ele>1287.34</ele>
        <time>2014-10-05T12:45:24Z</time>
      </trkpt>
      <trkpt lat="45.39578" lon="4.57143">
        <ele>1286.86</ele>
        <time>2014-10-05T12:45:25Z</time>
      </trkpt>
      <trkpt lat="45.39581" lon="4.57144">
        <ele>1286.86</ele>
        <time>2014-10-05T12:45:26Z</time>
      </trkpt>
      <trkpt lat="45.39584" lon="4.57143">
        <ele>1287.34</ele>
        <time>2014-10-05T12:45:27Z</time>
      </trkpt>
      <trkpt lat="45.39589" lon="4.57142">
        <ele>1286.86</ele>
        <time>2014-10-05T12:45:28Z</time>
      </trkpt>
      <trkpt lat="45.39593" lon="4.57139">
        <ele>1286.86</ele>
        <time>2014-10-05T12:45:29Z</time>
      </trkpt>
      <trkpt lat="45.39607" lon="4.57135">
        <ele>1287.34</ele>
        <time>2014-10-05T12:45:32Z</time>
      </trkpt>
      <trkpt lat="45.39618" lon="4.57135">
        <ele>1286.38</ele>
        <time>2014-10-05T12:45:34Z</time>
      </trkpt>
      <trkpt lat="45.39632" lon="4.57136">
        <ele>1285.9</ele>
        <time>2014-10-05T12:45:36Z</time>
      </trkpt>
      <trkpt lat="45.39663" lon="4.5714">
        <ele>1284.46</ele>
        <time>2014-10-05T12:45:41Z</time>
      </trkpt>
      <trkpt lat="45.39669" lon="4.57142">
        <ele>1283.98</ele>
        <time>2014-10-05T12:45:42Z</time>
      </trkpt>
      <trkpt lat="45.39674" lon="4.57145">
        <ele>1283.5</ele>
        <time>2014-10-05T12:45:43Z</time>
      </trkpt>
      <trkpt lat="45.39679" lon="4.57147">
        <ele>1282.54</ele>
        <time>2014-10-05T12:45:44Z</time>
      </trkpt>
      <trkpt lat="45.39683" lon="4.57147">
        <ele>1282.54</ele>
        <time>2014-10-05T12:45:45Z</time>
      </trkpt>
      <trkpt lat="45.39688" lon="4.57147">
        <ele>1281.57</ele>
        <time>2014-10-05T12:45:46Z</time>
      </trkpt>
      <trkpt lat="45.39703" lon="4.57143">
        <ele>1281.09</ele>
        <time>2014-10-05T12:45:49Z</time>
      </trkpt>
      <trkpt lat="45.3971" lon="4.57143">
        <ele>1280.61</ele>
        <time>2014-10-05T12:45:50Z</time>
      </trkpt>
      <trkpt lat="45.39718" lon="4.57142">
        <ele>1280.61</ele>
        <time>2014-10-05T12:45:51Z</time>
      </trkpt>
      <trkpt lat="45.39742" lon="4.57131">
        <ele>1277.73</ele>
        <time>2014-10-05T12:45:55Z</time>
      </trkpt>
      <trkpt lat="45.39746" lon="4.57128">
        <ele>1277.25</ele>
        <time>2014-10-05T12:45:56Z</time>
      </trkpt>
      <trkpt lat="45.3975" lon="4.57126">
        <ele>1277.25</ele>
        <time>2014-10-05T12:45:57Z</time>
      </trkpt>
      <trkpt lat="45.39753" lon="4.57125">
        <ele>1276.77</ele>
        <time>2014-10-05T12:45:58Z</time>
      </trkpt>
      <trkpt lat="45.39758" lon="4.57126">
        <ele>1276.29</ele>
        <time>2014-10-05T12:45:59Z</time>
      </trkpt>
      <trkpt lat="45.39763" lon="4.57127">
        <ele>1275.33</ele>
        <time>2014-10-05T12:46:00Z</time>
      </trkpt>
      <trkpt lat="45.39768" lon="4.57127">
        <ele>1274.36</ele>
        <time>2014-10-05T12:46:01Z</time>
      </trkpt>
      <trkpt lat="45.39773" lon="4.57127">
        <ele>1273.88</ele>
        <time>2014-10-05T12:46:02Z</time>
      </trkpt>
      <trkpt lat="45.39778" lon="4.57126">
        <ele>1272.44</ele>
        <time>2014-10-05T12:46:03Z</time>
      </trkpt>
      <trkpt lat="45.39783" lon="4.57125">
        <ele>1271.48</ele>
        <time>2014-10-05T12:46:04Z</time>
      </trkpt>
      <trkpt lat="45.39788" lon="4.57125">
        <ele>1270.52</ele>
        <time>2014-10-05T12:46:05Z</time>
      </trkpt>
      <trkpt lat="45.39792" lon="4.57124">
        <ele>1269.56</ele>
        <time>2014-10-05T12:46:06Z</time>
      </trkpt>
      <trkpt lat="45.39795" lon="4.57123">
        <ele>1269.56</ele>
        <time>2014-10-05T12:46:07Z</time>
      </trkpt>
      <trkpt lat="45.39798" lon="4.57122">
        <ele>1269.08</ele>
        <time>2014-10-05T12:46:08Z</time>
      </trkpt>
      <trkpt lat="45.39803" lon="4.57122">
        <ele>1268.6</ele>
        <time>2014-10-05T12:46:09Z</time>
      </trkpt>
      <trkpt lat="45.39807" lon="4.57122">
        <ele>1268.12</ele>
        <time>2014-10-05T12:46:10Z</time>
      </trkpt>
      <trkpt lat="45.39822" lon="4.57125">
        <ele>1265.71</ele>
        <time>2014-10-05T12:46:13Z</time>
      </trkpt>
      <trkpt lat="45.39827" lon="4.57126">
        <ele>1265.71</ele>
        <time>2014-10-05T12:46:14Z</time>
      </trkpt>
      <trkpt lat="45.39836" lon="4.57128">
        <ele>1263.79</ele>
        <time>2014-10-05T12:46:16Z</time>
      </trkpt>
      <trkpt lat="45.3984" lon="4.57126">
        <ele>1262.35</ele>
        <time>2014-10-05T12:46:17Z</time>
      </trkpt>
      <trkpt lat="45.39844" lon="4.57123">
        <ele>1261.87</ele>
        <time>2014-10-05T12:46:18Z</time>
      </trkpt>
      <trkpt lat="45.39848" lon="4.5712">
        <ele>1260.91</ele>
        <time>2014-10-05T12:46:19Z</time>
      </trkpt>
      <trkpt lat="45.39851" lon="4.57117">
        <ele>1261.39</ele>
        <time>2014-10-05T12:46:20Z</time>
      </trkpt>
      <trkpt lat="45.39854" lon="4.57115">
        <ele>1260.43</ele>
        <time>2014-10-05T12:46:21Z</time>
      </trkpt>
      <trkpt lat="45.39858" lon="4.57114">
        <ele>1259.94</ele>
        <time>2014-10-05T12:46:22Z</time>
      </trkpt>
      <trkpt lat="45.39862" lon="4.57113">
        <ele>1259.46</ele>
        <time>2014-10-05T12:46:23Z</time>
      </trkpt>
      <trkpt lat="45.39866" lon="4.57113">
        <ele>1258.98</ele>
        <time>2014-10-05T12:46:24Z</time>
      </trkpt>
      <trkpt lat="45.39869" lon="4.57114">
        <ele>1257.54</ele>
        <time>2014-10-05T12:46:25Z</time>
      </trkpt>
      <trkpt lat="45.39871" lon="4.57114">
        <ele>1254.18</ele>
        <time>2014-10-05T12:46:26Z</time>
      </trkpt>
      <trkpt lat="45.39871" lon="4.57114">
        <ele>1257.54</ele>
        <time>2014-10-05T12:46:27Z</time>
      </trkpt>
      <trkpt lat="45.39871" lon="4.57116">
        <ele>1257.54</ele>
        <time>2014-10-05T12:46:35Z</time>
      </trkpt>
      <trkpt lat="45.39875" lon="4.57115">
        <ele>1257.54</ele>
        <time>2014-10-05T12:46:37Z</time>
      </trkpt>
      <trkpt lat="45.39888" lon="4.57116">
        <ele>1253.7</ele>
        <time>2014-10-05T12:46:43Z</time>
      </trkpt>
      <trkpt lat="45.39891" lon="4.57115">
        <ele>1253.7</ele>
        <time>2014-10-05T12:46:44Z</time>
      </trkpt>
      <trkpt lat="45.39911" lon="4.57097">
        <ele>1250.81</ele>
        <time>2014-10-05T12:46:51Z</time>
      </trkpt>
      <trkpt lat="45.39922" lon="4.57103">
        <ele>1248.41</ele>
        <time>2014-10-05T12:46:54Z</time>
      </trkpt>
      <trkpt lat="45.39926" lon="4.57104">
        <ele>1247.45</ele>
        <time>2014-10-05T12:46:55Z</time>
      </trkpt>
      <trkpt lat="45.3993" lon="4.57102">
        <ele>1246.49</ele>
        <time>2014-10-05T12:46:56Z</time>
      </trkpt>
      <trkpt lat="45.39933" lon="4.57101">
        <ele>1245.53</ele>
        <time>2014-10-05T12:46:57Z</time>
      </trkpt>
      <trkpt lat="45.39937" lon="4.57099">
        <ele>1245.04</ele>
        <time>2014-10-05T12:46:58Z</time>
      </trkpt>
      <trkpt lat="45.3994" lon="4.57099">
        <ele>1244.56</ele>
        <time>2014-10-05T12:46:59Z</time>
      </trkpt>
      <trkpt lat="45.39943" lon="4.57099">
        <ele>1244.08</ele>
        <time>2014-10-05T12:47:00Z</time>
      </trkpt>
      <trkpt lat="45.39952" lon="4.57097">
        <ele>1242.16</ele>
        <time>2014-10-05T12:47:03Z</time>
      </trkpt>
      <trkpt lat="45.39955" lon="4.57095">
        <ele>1242.16</ele>
        <time>2014-10-05T12:47:04Z</time>
      </trkpt>
      <trkpt lat="45.39959" lon="4.57094">
        <ele>1242.16</ele>
        <time>2014-10-05T12:47:05Z</time>
      </trkpt>
      <trkpt lat="45.39964" lon="4.57094">
        <ele>1241.68</ele>
        <time>2014-10-05T12:47:06Z</time>
      </trkpt>
      <trkpt lat="45.39969" lon="4.57094">
        <ele>1240.72</ele>
        <time>2014-10-05T12:47:07Z</time>
      </trkpt>
      <trkpt lat="45.39973" lon="4.57093">
        <ele>1239.76</ele>
        <time>2014-10-05T12:47:08Z</time>
      </trkpt>
      <trkpt lat="45.39978" lon="4.57092">
        <ele>1238.8</ele>
        <time>2014-10-05T12:47:09Z</time>
      </trkpt>
      <trkpt lat="45.39983" lon="4.57092">
        <ele>1236.87</ele>
        <time>2014-10-05T12:47:10Z</time>
      </trkpt>
      <trkpt lat="45.39989" lon="4.57092">
        <ele>1235.91</ele>
        <time>2014-10-05T12:47:11Z</time>
      </trkpt>
      <trkpt lat="45.39994" lon="4.57093">
        <ele>1235.43</ele>
        <time>2014-10-05T12:47:12Z</time>
      </trkpt>
      <trkpt lat="45.39999" lon="4.57094">
        <ele>1234.95</ele>
        <time>2014-10-05T12:47:13Z</time>
      </trkpt>
      <trkpt lat="45.40004" lon="4.57095">
        <ele>1233.99</ele>
        <time>2014-10-05T12:47:14Z</time>
      </trkpt>
      <trkpt lat="45.40009" lon="4.57097">
        <ele>1233.03</ele>
        <time>2014-10-05T12:47:15Z</time>
      </trkpt>
      <trkpt lat="45.40014" lon="4.57098">
        <ele>1232.55</ele>
        <time>2014-10-05T12:47:16Z</time>
      </trkpt>
      <trkpt lat="45.40018" lon="4.57099">
        <ele>1231.59</ele>
        <time>2014-10-05T12:47:17Z</time>
      </trkpt>
      <trkpt lat="45.40023" lon="4.571">
        <ele>1230.14</ele>
        <time>2014-10-05T12:47:18Z</time>
      </trkpt>
      <trkpt lat="45.40028" lon="4.57101">
        <ele>1229.18</ele>
        <time>2014-10-05T12:47:19Z</time>
      </trkpt>
      <trkpt lat="45.40043" lon="4.57102">
        <ele>1226.3</ele>
        <time>2014-10-05T12:47:23Z</time>
      </trkpt>
      <trkpt lat="45.40056" lon="4.57094">
        <ele>1222.45</ele>
        <time>2014-10-05T12:47:27Z</time>
      </trkpt>
      <trkpt lat="45.40072" lon="4.57084">
        <ele>1218.61</ele>
        <time>2014-10-05T12:47:31Z</time>
      </trkpt>
      <trkpt lat="45.40084" lon="4.57076">
        <ele>1213.8</ele>
        <time>2014-10-05T12:47:34Z</time>
      </trkpt>
      <trkpt lat="45.40106" lon="4.57075">
        <ele>1210.44</ele>
        <time>2014-10-05T12:47:39Z</time>
      </trkpt>
      <trkpt lat="45.40116" lon="4.57077">
        <ele>1208.51</ele>
        <time>2014-10-05T12:47:41Z</time>
      </trkpt>
      <trkpt lat="45.4012" lon="4.57076">
        <ele>1208.03</ele>
        <time>2014-10-05T12:47:42Z</time>
      </trkpt>
      <trkpt lat="45.40138" lon="4.57072">
        <ele>1203.71</ele>
        <time>2014-10-05T12:47:46Z</time>
      </trkpt>
      <trkpt lat="45.40147" lon="4.57072">
        <ele>1202.27</ele>
        <time>2014-10-05T12:47:48Z</time>
      </trkpt>
      <trkpt lat="45.40152" lon="4.57072">
        <ele>1201.79</ele>
        <time>2014-10-05T12:47:49Z</time>
      </trkpt>
      <trkpt lat="45.40159" lon="4.57071">
        <ele>1201.3</ele>
        <time>2014-10-05T12:47:50Z</time>
      </trkpt>
      <trkpt lat="45.40166" lon="4.57069">
        <ele>1200.82</ele>
        <time>2014-10-05T12:47:51Z</time>
      </trkpt>
      <trkpt lat="45.40173" lon="4.57069">
        <ele>1199.86</ele>
        <time>2014-10-05T12:47:52Z</time>
      </trkpt>
      <trkpt lat="45.40181" lon="4.5707">
        <ele>1199.38</ele>
        <time>2014-10-05T12:47:53Z</time>
      </trkpt>
      <trkpt lat="45.40189" lon="4.57071">
        <ele>1198.42</ele>
        <time>2014-10-05T12:47:54Z</time>
      </trkpt>
      <trkpt lat="45.40198" lon="4.57073">
        <ele>1197.94</ele>
        <time>2014-10-05T12:47:55Z</time>
      </trkpt>
      <trkpt lat="45.40206" lon="4.57076">
        <ele>1197.46</ele>
        <time>2014-10-05T12:47:56Z</time>
      </trkpt>
      <trkpt lat="45.40214" lon="4.5708">
        <ele>1196.98</ele>
        <time>2014-10-05T12:47:57Z</time>
      </trkpt>
      <trkpt lat="45.40225" lon="4.57084">
        <ele>1196.5</ele>
        <time>2014-10-05T12:47:58Z</time>
      </trkpt>
      <trkpt lat="45.40234" lon="4.57087">
        <ele>1196.02</ele>
        <time>2014-10-05T12:47:59Z</time>
      </trkpt>
      <trkpt lat="45.40244" lon="4.57089">
        <ele>1195.54</ele>
        <time>2014-10-05T12:48:00Z</time>
      </trkpt>
      <trkpt lat="45.40309" lon="4.57098">
        <ele>1192.17</ele>
        <time>2014-10-05T12:48:07Z</time>
      </trkpt>
      <trkpt lat="45.40315" lon="4.57096">
        <ele>1192.17</ele>
        <time>2014-10-05T12:48:08Z</time>
      </trkpt>
      <trkpt lat="45.40322" lon="4.57095">
        <ele>1192.17</ele>
        <time>2014-10-05T12:48:09Z</time>
      </trkpt>
      <trkpt lat="45.40328" lon="4.57092">
        <ele>1191.69</ele>
        <time>2014-10-05T12:48:10Z</time>
      </trkpt>
      <trkpt lat="45.40334" lon="4.57088">
        <ele>1190.73</ele>
        <time>2014-10-05T12:48:11Z</time>
      </trkpt>
      <trkpt lat="45.40339" lon="4.57083">
        <ele>1190.25</ele>
        <time>2014-10-05T12:48:12Z</time>
      </trkpt>
      <trkpt lat="45.40345" lon="4.57077">
        <ele>1189.77</ele>
        <time>2014-10-05T12:48:13Z</time>
      </trkpt>
      <trkpt lat="45.4035" lon="4.57071">
        <ele>1188.81</ele>
        <time>2014-10-05T12:48:14Z</time>
      </trkpt>
      <trkpt lat="45.40355" lon="4.57065">
        <ele>1188.81</ele>
        <time>2014-10-05T12:48:15Z</time>
      </trkpt>
      <trkpt lat="45.40361" lon="4.5706">
        <ele>1187.85</ele>
        <time>2014-10-05T12:48:16Z</time>
      </trkpt>
      <trkpt lat="45.40367" lon="4.57057">
        <ele>1187.37</ele>
        <time>2014-10-05T12:48:17Z</time>
      </trkpt>
      <trkpt lat="45.40371" lon="4.57054">
        <ele>1185.92</ele>
        <time>2014-10-05T12:48:18Z</time>
      </trkpt>
      <trkpt lat="45.40368" lon="4.57037">
        <ele>1183.04</ele>
        <time>2014-10-05T12:48:24Z</time>
      </trkpt>
      <trkpt lat="45.40365" lon="4.57035">
        <ele>1182.56</ele>
        <time>2014-10-05T12:48:25Z</time>
      </trkpt>
      <trkpt lat="45.40353" lon="4.57026">
        <ele>1179.19</ele>
        <time>2014-10-05T12:48:28Z</time>
      </trkpt>
      <trkpt lat="45.4036" lon="4.57005">
        <ele>1175.83</ele>
        <time>2014-10-05T12:48:34Z</time>
      </trkpt>
      <trkpt lat="45.40369" lon="4.56985">
        <ele>1171.02</ele>
        <time>2014-10-05T12:48:38Z</time>
      </trkpt>
      <trkpt lat="45.40374" lon="4.56969">
        <ele>1168.14</ele>
        <time>2014-10-05T12:48:41Z</time>
      </trkpt>
      <trkpt lat="45.40368" lon="4.56952">
        <ele>1162.85</ele>
        <time>2014-10-05T12:48:46Z</time>
      </trkpt>
      <trkpt lat="45.40365" lon="4.56948">
        <ele>1159.01</ele>
        <time>2014-10-05T12:48:48Z</time>
      </trkpt>
      <trkpt lat="45.40363" lon="4.56944">
        <ele>1158.05</ele>
        <time>2014-10-05T12:48:50Z</time>
      </trkpt>
      <trkpt lat="45.40359" lon="4.56938">
        <ele>1157.56</ele>
        <time>2014-10-05T12:48:53Z</time>
      </trkpt>
      <trkpt lat="45.40359" lon="4.56925">
        <ele>1154.68</ele>
        <time>2014-10-05T12:48:57Z</time>
      </trkpt>
      <trkpt lat="45.40361" lon="4.56915">
        <ele>1151.8</ele>
        <time>2014-10-05T12:49:00Z</time>
      </trkpt>
      <trkpt lat="45.40364" lon="4.56892">
        <ele>1147.95</ele>
        <time>2014-10-05T12:49:04Z</time>
      </trkpt>
      <trkpt lat="45.40371" lon="4.56867">
        <ele>1142.18</ele>
        <time>2014-10-05T12:49:10Z</time>
      </trkpt>
      <trkpt lat="45.40375" lon="4.56861">
        <ele>1140.26</ele>
        <time>2014-10-05T12:49:12Z</time>
      </trkpt>
      <trkpt lat="45.40381" lon="4.5684">
        <ele>1136.9</ele>
        <time>2014-10-05T12:49:18Z</time>
      </trkpt>
      <trkpt lat="45.40384" lon="4.56821">
        <ele>1132.57</ele>
        <time>2014-10-05T12:49:22Z</time>
      </trkpt>
      <trkpt lat="45.40389" lon="4.56811">
        <ele>1129.21</ele>
        <time>2014-10-05T12:49:25Z</time>
      </trkpt>
      <trkpt lat="45.40388" lon="4.56801">
        <ele>1127.28</ele>
        <time>2014-10-05T12:49:28Z</time>
      </trkpt>
      <trkpt lat="45.40387" lon="4.5679">
        <ele>1125.36</ele>
        <time>2014-10-05T12:49:30Z</time>
      </trkpt>
      <trkpt lat="45.40389" lon="4.56769">
        <ele>1121.52</ele>
        <time>2014-10-05T12:49:33Z</time>
      </trkpt>
      <trkpt lat="45.4039" lon="4.56754">
        <ele>1118.63</ele>
        <time>2014-10-05T12:49:36Z</time>
      </trkpt>
      <trkpt lat="45.40392" lon="4.5675">
        <ele>1117.67</ele>
        <time>2014-10-05T12:49:37Z</time>
      </trkpt>
      <trkpt lat="45.40393" lon="4.56747">
        <ele>1116.23</ele>
        <time>2014-10-05T12:49:38Z</time>
      </trkpt>
      <trkpt lat="45.40403" lon="4.56735">
        <ele>1112.38</ele>
        <time>2014-10-05T12:49:42Z</time>
      </trkpt>
      <trkpt lat="45.40418" lon="4.56718">
        <ele>1109.02</ele>
        <time>2014-10-05T12:49:46Z</time>
      </trkpt>
      <trkpt lat="45.40422" lon="4.56713">
        <ele>1108.54</ele>
        <time>2014-10-05T12:49:47Z</time>
      </trkpt>
      <trkpt lat="45.40427" lon="4.56709">
        <ele>1108.06</ele>
        <time>2014-10-05T12:49:48Z</time>
      </trkpt>
      <trkpt lat="45.4043" lon="4.56704">
        <ele>1107.58</ele>
        <time>2014-10-05T12:49:49Z</time>
      </trkpt>
      <trkpt lat="45.40432" lon="4.567">
        <ele>1106.61</ele>
        <time>2014-10-05T12:49:50Z</time>
      </trkpt>
      <trkpt lat="45.40434" lon="4.56695">
        <ele>1105.65</ele>
        <time>2014-10-05T12:49:51Z</time>
      </trkpt>
      <trkpt lat="45.40435" lon="4.56688">
        <ele>1104.21</ele>
        <time>2014-10-05T12:49:52Z</time>
      </trkpt>
      <trkpt lat="45.40435" lon="4.56683">
        <ele>1103.25</ele>
        <time>2014-10-05T12:49:53Z</time>
      </trkpt>
      <trkpt lat="45.40435" lon="4.56665">
        <ele>1098.44</ele>
        <time>2014-10-05T12:49:57Z</time>
      </trkpt>
      <trkpt lat="45.40438" lon="4.56651">
        <ele>1096.04</ele>
        <time>2014-10-05T12:50:01Z</time>
      </trkpt>
      <trkpt lat="45.4044" lon="4.56649">
        <ele>1095.08</ele>
        <time>2014-10-05T12:50:03Z</time>
      </trkpt>
      <trkpt lat="45.40444" lon="4.56631">
        <ele>1090.27</ele>
        <time>2014-10-05T12:50:09Z</time>
      </trkpt>
      <trkpt lat="45.40442" lon="4.56619">
        <ele>1088.35</ele>
        <time>2014-10-05T12:50:12Z</time>
      </trkpt>
      <trkpt lat="45.40437" lon="4.56593">
        <ele>1084.02</ele>
        <time>2014-10-05T12:50:20Z</time>
      </trkpt>
      <trkpt lat="45.40439" lon="4.56583">
        <ele>1079.7</ele>
        <time>2014-10-05T12:50:24Z</time>
      </trkpt>
      <trkpt lat="45.40446" lon="4.5657">
        <ele>1076.33</ele>
        <time>2014-10-05T12:50:27Z</time>
      </trkpt>
      <trkpt lat="45.40454" lon="4.56554">
        <ele>1072.97</ele>
        <time>2014-10-05T12:50:30Z</time>
      </trkpt>
      <trkpt lat="45.40459" lon="4.56539">
        <ele>1070.08</ele>
        <time>2014-10-05T12:50:34Z</time>
      </trkpt>
      <trkpt lat="45.40465" lon="4.56517">
        <ele>1066.72</ele>
        <time>2014-10-05T12:50:39Z</time>
      </trkpt>
      <trkpt lat="45.40472" lon="4.56504">
        <ele>1063.36</ele>
        <time>2014-10-05T12:50:43Z</time>
      </trkpt>
      <trkpt lat="45.40477" lon="4.5649">
        <ele>1060.95</ele>
        <time>2014-10-05T12:50:46Z</time>
      </trkpt>
      <trkpt lat="45.40481" lon="4.56485">
        <ele>1059.51</ele>
        <time>2014-10-05T12:50:47Z</time>
      </trkpt>
      <trkpt lat="45.40485" lon="4.5648">
        <ele>1059.03</ele>
        <time>2014-10-05T12:50:48Z</time>
      </trkpt>
      <trkpt lat="45.40502" lon="4.56463">
        <ele>1057.11</ele>
        <time>2014-10-05T12:50:51Z</time>
      </trkpt>
      <trkpt lat="45.40561" lon="4.56417">
        <ele>1055.67</ele>
        <time>2014-10-05T12:51:00Z</time>
      </trkpt>
      <trkpt lat="45.40568" lon="4.56414">
        <ele>1055.67</ele>
        <time>2014-10-05T12:51:01Z</time>
      </trkpt>
      <trkpt lat="45.40575" lon="4.5641">
        <ele>1055.67</ele>
        <time>2014-10-05T12:51:02Z</time>
      </trkpt>
      <trkpt lat="45.40593" lon="4.56401">
        <ele>1054.7</ele>
        <time>2014-10-05T12:51:05Z</time>
      </trkpt>
      <trkpt lat="45.40598" lon="4.56395">
        <ele>1054.7</ele>
        <time>2014-10-05T12:51:06Z</time>
      </trkpt>
      <trkpt lat="45.40601" lon="4.56388">
        <ele>1054.7</ele>
        <time>2014-10-05T12:51:07Z</time>
      </trkpt>
      <trkpt lat="45.40612" lon="4.56369">
        <ele>1051.34</ele>
        <time>2014-10-05T12:51:10Z</time>
      </trkpt>
      <trkpt lat="45.40616" lon="4.56364">
        <ele>1050.86</ele>
        <time>2014-10-05T12:51:11Z</time>
      </trkpt>
      <trkpt lat="45.40621" lon="4.56359">
        <ele>1050.38</ele>
        <time>2014-10-05T12:51:12Z</time>
      </trkpt>
      <trkpt lat="45.40625" lon="4.56355">
        <ele>1049.9</ele>
        <time>2014-10-05T12:51:13Z</time>
      </trkpt>
      <trkpt lat="45.4063" lon="4.56352">
        <ele>1049.9</ele>
        <time>2014-10-05T12:51:14Z</time>
      </trkpt>
      <trkpt lat="45.40646" lon="4.56341">
        <ele>1049.42</ele>
        <time>2014-10-05T12:51:17Z</time>
      </trkpt>
      <trkpt lat="45.40651" lon="4.56336">
        <ele>1048.94</ele>
        <time>2014-10-05T12:51:18Z</time>
      </trkpt>
      <trkpt lat="45.40657" lon="4.5633">
        <ele>1048.94</ele>
        <time>2014-10-05T12:51:19Z</time>
      </trkpt>
      <trkpt lat="45.40681" lon="4.56305">
        <ele>1049.42</ele>
        <time>2014-10-05T12:51:23Z</time>
      </trkpt>
      <trkpt lat="45.40687" lon="4.56299">
        <ele>1048.94</ele>
        <time>2014-10-05T12:51:24Z</time>
      </trkpt>
      <trkpt lat="45.40714" lon="4.56269">
        <ele>1045.09</ele>
        <time>2014-10-05T12:51:28Z</time>
      </trkpt>
      <trkpt lat="45.40741" lon="4.56239">
        <ele>1041.73</ele>
        <time>2014-10-05T12:51:32Z</time>
      </trkpt>
      <trkpt lat="45.40753" lon="4.56227">
        <ele>1039.32</ele>
        <time>2014-10-05T12:51:34Z</time>
      </trkpt>
      <trkpt lat="45.40758" lon="4.56222">
        <ele>1036.92</ele>
        <time>2014-10-05T12:51:35Z</time>
      </trkpt>
      <trkpt lat="45.40763" lon="4.56218">
        <ele>1035.96</ele>
        <time>2014-10-05T12:51:36Z</time>
      </trkpt>
      <trkpt lat="45.40767" lon="4.56213">
        <ele>1035</ele>
        <time>2014-10-05T12:51:37Z</time>
      </trkpt>
      <trkpt lat="45.4077" lon="4.56211">
        <ele>1034.52</ele>
        <time>2014-10-05T12:51:38Z</time>
      </trkpt>
      <trkpt lat="45.40773" lon="4.56209">
        <ele>1035</ele>
        <time>2014-10-05T12:51:39Z</time>
      </trkpt>
      <trkpt lat="45.40776" lon="4.56208">
        <ele>1035</ele>
        <time>2014-10-05T12:51:40Z</time>
      </trkpt>
      <trkpt lat="45.40778" lon="4.56207">
        <ele>1035</ele>
        <time>2014-10-05T12:51:41Z</time>
      </trkpt>
      <trkpt lat="45.40781" lon="4.56206">
        <ele>1035</ele>
        <time>2014-10-05T12:51:42Z</time>
      </trkpt>
      <trkpt lat="45.40786" lon="4.56204">
        <ele>1034.52</ele>
        <time>2014-10-05T12:51:44Z</time>
      </trkpt>
      <trkpt lat="45.4079" lon="4.56196">
        <ele>1031.15</ele>
        <time>2014-10-05T12:51:48Z</time>
      </trkpt>
      <trkpt lat="45.40793" lon="4.56189">
        <ele>1026.83</ele>
        <time>2014-10-05T12:51:52Z</time>
      </trkpt>
      <trkpt lat="45.40802" lon="4.56173">
        <ele>1023.46</ele>
        <time>2014-10-05T12:51:57Z</time>
      </trkpt>
      <trkpt lat="45.40813" lon="4.56157">
        <ele>1020.58</ele>
        <time>2014-10-05T12:52:01Z</time>
      </trkpt>
      <trkpt lat="45.40826" lon="4.56149">
        <ele>1019.13</ele>
        <time>2014-10-05T12:52:04Z</time>
      </trkpt>
      <trkpt lat="45.40851" lon="4.56135">
        <ele>1015.77</ele>
        <time>2014-10-05T12:52:12Z</time>
      </trkpt>
      <trkpt lat="45.40862" lon="4.56121">
        <ele>1013.85</ele>
        <time>2014-10-05T12:52:17Z</time>
      </trkpt>
      <trkpt lat="45.40878" lon="4.5609">
        <ele>1012.89</ele>
        <time>2014-10-05T12:52:21Z</time>
      </trkpt>
      <trkpt lat="45.4088" lon="4.56083">
        <ele>1012.89</ele>
        <time>2014-10-05T12:52:22Z</time>
      </trkpt>
      <trkpt lat="45.40883" lon="4.56077">
        <ele>1012.89</ele>
        <time>2014-10-05T12:52:23Z</time>
      </trkpt>
      <trkpt lat="45.40884" lon="4.5607">
        <ele>1013.37</ele>
        <time>2014-10-05T12:52:24Z</time>
      </trkpt>
      <trkpt lat="45.40886" lon="4.56064">
        <ele>1013.85</ele>
        <time>2014-10-05T12:52:25Z</time>
      </trkpt>
      <trkpt lat="45.40886" lon="4.56058">
        <ele>1013.85</ele>
        <time>2014-10-05T12:52:26Z</time>
      </trkpt>
      <trkpt lat="45.4089" lon="4.56042">
        <ele>1014.81</ele>
        <time>2014-10-05T12:52:30Z</time>
      </trkpt>
      <trkpt lat="45.40892" lon="4.56038">
        <ele>1015.29</ele>
        <time>2014-10-05T12:52:31Z</time>
      </trkpt>
      <trkpt lat="45.40901" lon="4.5599">
        <ele>1016.25</ele>
        <time>2014-10-05T12:52:40Z</time>
      </trkpt>
      <trkpt lat="45.40909" lon="4.55962">
        <ele>1018.65</ele>
        <time>2014-10-05T12:52:49Z</time>
      </trkpt>
      <trkpt lat="45.40908" lon="4.55943">
        <ele>1016.25</ele>
        <time>2014-10-05T12:52:56Z</time>
      </trkpt>
      <trkpt lat="45.40907" lon="4.55931">
        <ele>1016.25</ele>
        <time>2014-10-05T12:52:59Z</time>
      </trkpt>
      <trkpt lat="45.40905" lon="4.55916">
        <ele>1012.41</ele>
        <time>2014-10-05T12:53:03Z</time>
      </trkpt>
      <trkpt lat="45.40903" lon="4.55917">
        <ele>1011.93</ele>
        <time>2014-10-05T12:53:04Z</time>
      </trkpt>
      <trkpt lat="45.40892" lon="4.55909">
        <ele>1007.6</ele>
        <time>2014-10-05T12:53:08Z</time>
      </trkpt>
      <trkpt lat="45.40886" lon="4.55893">
        <ele>1004.72</ele>
        <time>2014-10-05T12:53:13Z</time>
      </trkpt>
      <trkpt lat="45.40886" lon="4.55889">
        <ele>1004.72</ele>
        <time>2014-10-05T12:53:14Z</time>
      </trkpt>
      <trkpt lat="45.40875" lon="4.55877">
        <ele>1000.87</ele>
        <time>2014-10-05T12:53:19Z</time>
      </trkpt>
      <trkpt lat="45.40866" lon="4.55876">
        <ele>997.51</ele>
        <time>2014-10-05T12:53:22Z</time>
      </trkpt>
      <trkpt lat="45.40861" lon="4.5587">
        <ele>994.62</ele>
        <time>2014-10-05T12:53:25Z</time>
      </trkpt>
      <trkpt lat="45.40855" lon="4.55859">
        <ele>992.7</ele>
        <time>2014-10-05T12:53:28Z</time>
      </trkpt>
      <trkpt lat="45.40854" lon="4.55848">
        <ele>990.78</ele>
        <time>2014-10-05T12:53:31Z</time>
      </trkpt>
      <trkpt lat="45.40855" lon="4.55839">
        <ele>991.26</ele>
        <time>2014-10-05T12:53:33Z</time>
      </trkpt>
      <trkpt lat="45.40856" lon="4.55833">
        <ele>991.26</ele>
        <time>2014-10-05T12:53:34Z</time>
      </trkpt>
      <trkpt lat="45.40863" lon="4.55803">
        <ele>990.78</ele>
        <time>2014-10-05T12:53:39Z</time>
      </trkpt>
      <trkpt lat="45.40865" lon="4.55797">
        <ele>990.78</ele>
        <time>2014-10-05T12:53:40Z</time>
      </trkpt>
      <trkpt lat="45.40873" lon="4.55777">
        <ele>990.3</ele>
        <time>2014-10-05T12:53:43Z</time>
      </trkpt>
      <trkpt lat="45.40879" lon="4.55762">
        <ele>989.81</ele>
        <time>2014-10-05T12:53:45Z</time>
      </trkpt>
      <trkpt lat="45.40882" lon="4.55754">
        <ele>989.81</ele>
        <time>2014-10-05T12:53:46Z</time>
      </trkpt>
      <trkpt lat="45.40886" lon="4.55747">
        <ele>989.33</ele>
        <time>2014-10-05T12:53:47Z</time>
      </trkpt>
      <trkpt lat="45.40889" lon="4.5574">
        <ele>989.33</ele>
        <time>2014-10-05T12:53:48Z</time>
      </trkpt>
      <trkpt lat="45.40892" lon="4.55732">
        <ele>988.85</ele>
        <time>2014-10-05T12:53:49Z</time>
      </trkpt>
      <trkpt lat="45.40895" lon="4.55725">
        <ele>988.85</ele>
        <time>2014-10-05T12:53:50Z</time>
      </trkpt>
      <trkpt lat="45.40901" lon="4.55708">
        <ele>988.37</ele>
        <time>2014-10-05T12:53:52Z</time>
      </trkpt>
      <trkpt lat="45.40905" lon="4.557">
        <ele>987.89</ele>
        <time>2014-10-05T12:53:53Z</time>
      </trkpt>
      <trkpt lat="45.40908" lon="4.55692">
        <ele>987.41</ele>
        <time>2014-10-05T12:53:54Z</time>
      </trkpt>
      <trkpt lat="45.40912" lon="4.55684">
        <ele>986.45</ele>
        <time>2014-10-05T12:53:55Z</time>
      </trkpt>
      <trkpt lat="45.40917" lon="4.55676">
        <ele>986.45</ele>
        <time>2014-10-05T12:53:56Z</time>
      </trkpt>
      <trkpt lat="45.40921" lon="4.55669">
        <ele>985.97</ele>
        <time>2014-10-05T12:53:57Z</time>
      </trkpt>
      <trkpt lat="45.40941" lon="4.55643">
        <ele>985.01</ele>
        <time>2014-10-05T12:54:01Z</time>
      </trkpt>
      <trkpt lat="45.40944" lon="4.55637">
        <ele>984.53</ele>
        <time>2014-10-05T12:54:02Z</time>
      </trkpt>
      <trkpt lat="45.40945" lon="4.55631">
        <ele>983.57</ele>
        <time>2014-10-05T12:54:03Z</time>
      </trkpt>
      <trkpt lat="45.40947" lon="4.55624">
        <ele>982.6</ele>
        <time>2014-10-05T12:54:04Z</time>
      </trkpt>
      <trkpt lat="45.40947" lon="4.55619">
        <ele>980.68</ele>
        <time>2014-10-05T12:54:05Z</time>
      </trkpt>
      <trkpt lat="45.40948" lon="4.55614">
        <ele>979.72</ele>
        <time>2014-10-05T12:54:06Z</time>
      </trkpt>
      <trkpt lat="45.40945" lon="4.55603">
        <ele>976.36</ele>
        <time>2014-10-05T12:54:10Z</time>
      </trkpt>
      <trkpt lat="45.40942" lon="4.55601">
        <ele>974.91</ele>
        <time>2014-10-05T12:54:11Z</time>
      </trkpt>
      <trkpt lat="45.40939" lon="4.55599">
        <ele>973.95</ele>
        <time>2014-10-05T12:54:12Z</time>
      </trkpt>
      <trkpt lat="45.40936" lon="4.55597">
        <ele>972.99</ele>
        <time>2014-10-05T12:54:13Z</time>
      </trkpt>
      <trkpt lat="45.40924" lon="4.55592">
        <ele>969.63</ele>
        <time>2014-10-05T12:54:18Z</time>
      </trkpt>
      <trkpt lat="45.40913" lon="4.5559">
        <ele>966.26</ele>
        <time>2014-10-05T12:54:23Z</time>
      </trkpt>
      <trkpt lat="45.40911" lon="4.55587">
        <ele>964.82</ele>
        <time>2014-10-05T12:54:25Z</time>
      </trkpt>
      <trkpt lat="45.40913" lon="4.55572">
        <ele>963.38</ele>
        <time>2014-10-05T12:54:30Z</time>
      </trkpt>
      <trkpt lat="45.40917" lon="4.55567">
        <ele>962.9</ele>
        <time>2014-10-05T12:54:31Z</time>
      </trkpt>
      <trkpt lat="45.40922" lon="4.55562">
        <ele>962.9</ele>
        <time>2014-10-05T12:54:32Z</time>
      </trkpt>
      <trkpt lat="45.40927" lon="4.55556">
        <ele>962.42</ele>
        <time>2014-10-05T12:54:33Z</time>
      </trkpt>
      <trkpt lat="45.4095" lon="4.55534">
        <ele>961.46</ele>
        <time>2014-10-05T12:54:37Z</time>
      </trkpt>
      <trkpt lat="45.40974" lon="4.55517">
        <ele>960.98</ele>
        <time>2014-10-05T12:54:41Z</time>
      </trkpt>
      <trkpt lat="45.4099" lon="4.55506">
        <ele>961.46</ele>
        <time>2014-10-05T12:54:44Z</time>
      </trkpt>
      <trkpt lat="45.41031" lon="4.55482">
        <ele>961.94</ele>
        <time>2014-10-05T12:54:52Z</time>
      </trkpt>
      <trkpt lat="45.41034" lon="4.55479">
        <ele>961.94</ele>
        <time>2014-10-05T12:54:53Z</time>
      </trkpt>
      <trkpt lat="45.41038" lon="4.55474">
        <ele>961.94</ele>
        <time>2014-10-05T12:54:54Z</time>
      </trkpt>
      <trkpt lat="45.41041" lon="4.55469">
        <ele>961.46</ele>
        <time>2014-10-05T12:54:55Z</time>
      </trkpt>
      <trkpt lat="45.41045" lon="4.55463">
        <ele>960.01</ele>
        <time>2014-10-05T12:54:56Z</time>
      </trkpt>
      <trkpt lat="45.41051" lon="4.5545">
        <ele>955.69</ele>
        <time>2014-10-05T12:54:58Z</time>
      </trkpt>
      <trkpt lat="45.41054" lon="4.55445">
        <ele>954.25</ele>
        <time>2014-10-05T12:54:59Z</time>
      </trkpt>
      <trkpt lat="45.41063" lon="4.55429">
        <ele>950.88</ele>
        <time>2014-10-05T12:55:01Z</time>
      </trkpt>
      <trkpt lat="45.41072" lon="4.55411">
        <ele>947.52</ele>
        <time>2014-10-05T12:55:03Z</time>
      </trkpt>
      <trkpt lat="45.41079" lon="4.55392">
        <ele>944.63</ele>
        <time>2014-10-05T12:55:05Z</time>
      </trkpt>
      <trkpt lat="45.41087" lon="4.55369">
        <ele>943.67</ele>
        <time>2014-10-05T12:55:07Z</time>
      </trkpt>
      <trkpt lat="45.4109" lon="4.55355">
        <ele>942.71</ele>
        <time>2014-10-05T12:55:08Z</time>
      </trkpt>
      <trkpt lat="45.41096" lon="4.55345">
        <ele>940.79</ele>
        <time>2014-10-05T12:55:09Z</time>
      </trkpt>
      <trkpt lat="45.4111" lon="4.5533">
        <ele>939.83</ele>
        <time>2014-10-05T12:55:11Z</time>
      </trkpt>
      <trkpt lat="45.41148" lon="4.5529">
        <ele>937.42</ele>
        <time>2014-10-05T12:55:16Z</time>
      </trkpt>
      <trkpt lat="45.41177" lon="4.55257">
        <ele>935.02</ele>
        <time>2014-10-05T12:55:20Z</time>
      </trkpt>
      <trkpt lat="45.4119" lon="4.55242">
        <ele>934.06</ele>
        <time>2014-10-05T12:55:22Z</time>
      </trkpt>
      <trkpt lat="45.41227" lon="4.55199">
        <ele>934.06</ele>
        <time>2014-10-05T12:55:28Z</time>
      </trkpt>
      <trkpt lat="45.41233" lon="4.55193">
        <ele>934.06</ele>
        <time>2014-10-05T12:55:29Z</time>
      </trkpt>
      <trkpt lat="45.41238" lon="4.55187">
        <ele>934.06</ele>
        <time>2014-10-05T12:55:30Z</time>
      </trkpt>
      <trkpt lat="45.41243" lon="4.5518">
        <ele>933.58</ele>
        <time>2014-10-05T12:55:31Z</time>
      </trkpt>
      <trkpt lat="45.41247" lon="4.55171">
        <ele>932.62</ele>
        <time>2014-10-05T12:55:32Z</time>
      </trkpt>
      <trkpt lat="45.41251" lon="4.55164">
        <ele>931.65</ele>
        <time>2014-10-05T12:55:33Z</time>
      </trkpt>
      <trkpt lat="45.41253" lon="4.55156">
        <ele>931.65</ele>
        <time>2014-10-05T12:55:34Z</time>
      </trkpt>
      <trkpt lat="45.41261" lon="4.55134">
        <ele>930.69</ele>
        <time>2014-10-05T12:55:37Z</time>
      </trkpt>
      <trkpt lat="45.4129" lon="4.55069">
        <ele>928.29</ele>
        <time>2014-10-05T12:55:44Z</time>
      </trkpt>
      <trkpt lat="45.41298" lon="4.55059">
        <ele>926.37</ele>
        <time>2014-10-05T12:55:45Z</time>
      </trkpt>
      <trkpt lat="45.41307" lon="4.5505">
        <ele>924.93</ele>
        <time>2014-10-05T12:55:46Z</time>
      </trkpt>
      <trkpt lat="45.41316" lon="4.55042">
        <ele>923.96</ele>
        <time>2014-10-05T12:55:47Z</time>
      </trkpt>
      <trkpt lat="45.41325" lon="4.55037">
        <ele>922.52</ele>
        <time>2014-10-05T12:55:48Z</time>
      </trkpt>
      <trkpt lat="45.41334" lon="4.55036">
        <ele>918.68</ele>
        <time>2014-10-05T12:55:49Z</time>
      </trkpt>
      <trkpt lat="45.41341" lon="4.55036">
        <ele>917.72</ele>
        <time>2014-10-05T12:55:50Z</time>
      </trkpt>
      <trkpt lat="45.41347" lon="4.55033">
        <ele>917.24</ele>
        <time>2014-10-05T12:55:51Z</time>
      </trkpt>
      <trkpt lat="45.41349" lon="4.55028">
        <ele>917.24</ele>
        <time>2014-10-05T12:55:52Z</time>
      </trkpt>
      <trkpt lat="45.41351" lon="4.55022">
        <ele>916.27</ele>
        <time>2014-10-05T12:55:53Z</time>
      </trkpt>
      <trkpt lat="45.41353" lon="4.55016">
        <ele>915.31</ele>
        <time>2014-10-05T12:55:54Z</time>
      </trkpt>
      <trkpt lat="45.41357" lon="4.55011">
        <ele>913.87</ele>
        <time>2014-10-05T12:55:55Z</time>
      </trkpt>
      <trkpt lat="45.41364" lon="4.55007">
        <ele>912.91</ele>
        <time>2014-10-05T12:55:56Z</time>
      </trkpt>
      <trkpt lat="45.41372" lon="4.55005">
        <ele>910.99</ele>
        <time>2014-10-05T12:55:57Z</time>
      </trkpt>
      <trkpt lat="45.41381" lon="4.55003">
        <ele>910.99</ele>
        <time>2014-10-05T12:55:58Z</time>
      </trkpt>
      <trkpt lat="45.41391" lon="4.55001">
        <ele>910.03</ele>
        <time>2014-10-05T12:55:59Z</time>
      </trkpt>
      <trkpt lat="45.41399" lon="4.54996">
        <ele>909.06</ele>
        <time>2014-10-05T12:56:00Z</time>
      </trkpt>
      <trkpt lat="45.41404" lon="4.54988">
        <ele>907.62</ele>
        <time>2014-10-05T12:56:01Z</time>
      </trkpt>
      <trkpt lat="45.4141" lon="4.5498">
        <ele>906.66</ele>
        <time>2014-10-05T12:56:02Z</time>
      </trkpt>
      <trkpt lat="45.41416" lon="4.54973">
        <ele>903.78</ele>
        <time>2014-10-05T12:56:03Z</time>
      </trkpt>
      <trkpt lat="45.41424" lon="4.54968">
        <ele>902.33</ele>
        <time>2014-10-05T12:56:04Z</time>
      </trkpt>
      <trkpt lat="45.41433" lon="4.54964">
        <ele>900.41</ele>
        <time>2014-10-05T12:56:05Z</time>
      </trkpt>
      <trkpt lat="45.4144" lon="4.54957">
        <ele>899.93</ele>
        <time>2014-10-05T12:56:06Z</time>
      </trkpt>
      <trkpt lat="45.41447" lon="4.54953">
        <ele>898.49</ele>
        <time>2014-10-05T12:56:07Z</time>
      </trkpt>
      <trkpt lat="45.41452" lon="4.54948">
        <ele>895.61</ele>
        <time>2014-10-05T12:56:08Z</time>
      </trkpt>
      <trkpt lat="45.41458" lon="4.54946">
        <ele>893.68</ele>
        <time>2014-10-05T12:56:09Z</time>
      </trkpt>
      <trkpt lat="45.41465" lon="4.54945">
        <ele>892.24</ele>
        <time>2014-10-05T12:56:10Z</time>
      </trkpt>
      <trkpt lat="45.4148" lon="4.54942">
        <ele>889.84</ele>
        <time>2014-10-05T12:56:12Z</time>
      </trkpt>
      <trkpt lat="45.41488" lon="4.54938">
        <ele>888.88</ele>
        <time>2014-10-05T12:56:13Z</time>
      </trkpt>
      <trkpt lat="45.41495" lon="4.54931">
        <ele>888.4</ele>
        <time>2014-10-05T12:56:14Z</time>
      </trkpt>
      <trkpt lat="45.41502" lon="4.54923">
        <ele>887.91</ele>
        <time>2014-10-05T12:56:15Z</time>
      </trkpt>
      <trkpt lat="45.41509" lon="4.54915">
        <ele>886.95</ele>
        <time>2014-10-05T12:56:16Z</time>
      </trkpt>
      <trkpt lat="45.41522" lon="4.549">
        <ele>885.51</ele>
        <time>2014-10-05T12:56:18Z</time>
      </trkpt>
      <trkpt lat="45.41542" lon="4.54881">
        <ele>884.07</ele>
        <time>2014-10-05T12:56:22Z</time>
      </trkpt>
      <trkpt lat="45.41547" lon="4.54877">
        <ele>884.07</ele>
        <time>2014-10-05T12:56:23Z</time>
      </trkpt>
      <trkpt lat="45.41553" lon="4.54874">
        <ele>883.59</ele>
        <time>2014-10-05T12:56:24Z</time>
      </trkpt>
      <trkpt lat="45.4157" lon="4.54865">
        <ele>883.11</ele>
        <time>2014-10-05T12:56:27Z</time>
      </trkpt>
      <trkpt lat="45.41576" lon="4.54859">
        <ele>883.59</ele>
        <time>2014-10-05T12:56:28Z</time>
      </trkpt>
      <trkpt lat="45.41581" lon="4.54854">
        <ele>883.11</ele>
        <time>2014-10-05T12:56:29Z</time>
      </trkpt>
      <trkpt lat="45.41587" lon="4.5485">
        <ele>883.11</ele>
        <time>2014-10-05T12:56:30Z</time>
      </trkpt>
      <trkpt lat="45.41593" lon="4.5485">
        <ele>882.15</ele>
        <time>2014-10-05T12:56:31Z</time>
      </trkpt>
      <trkpt lat="45.41599" lon="4.54852">
        <ele>882.63</ele>
        <time>2014-10-05T12:56:32Z</time>
      </trkpt>
      <trkpt lat="45.41605" lon="4.54855">
        <ele>882.15</ele>
        <time>2014-10-05T12:56:33Z</time>
      </trkpt>
      <trkpt lat="45.41611" lon="4.54859">
        <ele>882.15</ele>
        <time>2014-10-05T12:56:34Z</time>
      </trkpt>
      <trkpt lat="45.41616" lon="4.54863">
        <ele>882.15</ele>
        <time>2014-10-05T12:56:35Z</time>
      </trkpt>
      <trkpt lat="45.41623" lon="4.54865">
        <ele>882.15</ele>
        <time>2014-10-05T12:56:36Z</time>
      </trkpt>
      <trkpt lat="45.41643" lon="4.5487">
        <ele>880.22</ele>
        <time>2014-10-05T12:56:39Z</time>
      </trkpt>
      <trkpt lat="45.417" lon="4.54874">
        <ele>878.78</ele>
        <time>2014-10-05T12:56:47Z</time>
      </trkpt>
      <trkpt lat="45.41761" lon="4.54866">
        <ele>878.3</ele>
        <time>2014-10-05T12:56:57Z</time>
      </trkpt>
      <trkpt lat="45.41768" lon="4.54866">
        <ele>878.3</ele>
        <time>2014-10-05T12:56:58Z</time>
      </trkpt>
      <trkpt lat="45.41798" lon="4.54861">
        <ele>877.82</ele>
        <time>2014-10-05T12:57:03Z</time>
      </trkpt>
      <trkpt lat="45.41805" lon="4.54861">
        <ele>877.82</ele>
        <time>2014-10-05T12:57:04Z</time>
      </trkpt>
      <trkpt lat="45.41882" lon="4.54846">
        <ele>878.78</ele>
        <time>2014-10-05T12:57:18Z</time>
      </trkpt>
      <trkpt lat="45.41909" lon="4.5484">
        <ele>878.78</ele>
        <time>2014-10-05T12:57:24Z</time>
      </trkpt>
      <trkpt lat="45.41914" lon="4.54839">
        <ele>879.26</ele>
        <time>2014-10-05T12:57:25Z</time>
      </trkpt>
      <trkpt lat="45.41923" lon="4.54838">
        <ele>878.78</ele>
        <time>2014-10-05T12:57:27Z</time>
      </trkpt>
      <trkpt lat="45.41928" lon="4.54837">
        <ele>878.78</ele>
        <time>2014-10-05T12:57:28Z</time>
      </trkpt>
      <trkpt lat="45.41983" lon="4.5481">
        <ele>878.78</ele>
        <time>2014-10-05T12:57:40Z</time>
      </trkpt>
      <trkpt lat="45.42028" lon="4.5479">
        <ele>878.78</ele>
        <time>2014-10-05T12:57:51Z</time>
      </trkpt>
      <trkpt lat="45.42053" lon="4.54781">
        <ele>878.78</ele>
        <time>2014-10-05T12:57:56Z</time>
      </trkpt>
      <trkpt lat="45.42062" lon="4.5478">
        <ele>878.78</ele>
        <time>2014-10-05T12:57:58Z</time>
      </trkpt>
      <trkpt lat="45.42095" lon="4.54772">
        <ele>878.78</ele>
        <time>2014-10-05T12:58:04Z</time>
      </trkpt>
      <trkpt lat="45.42164" lon="4.54778">
        <ele>878.3</ele>
        <time>2014-10-05T12:58:16Z</time>
      </trkpt>
      <trkpt lat="45.42169" lon="4.54778">
        <ele>878.78</ele>
        <time>2014-10-05T12:58:17Z</time>
      </trkpt>
      <trkpt lat="45.42174" lon="4.54779">
        <ele>878.3</ele>
        <time>2014-10-05T12:58:18Z</time>
      </trkpt>
      <trkpt lat="45.42179" lon="4.5478">
        <ele>878.78</ele>
        <time>2014-10-05T12:58:19Z</time>
      </trkpt>
      <trkpt lat="45.42183" lon="4.54781">
        <ele>879.74</ele>
        <time>2014-10-05T12:58:20Z</time>
      </trkpt>
      <trkpt lat="45.42187" lon="4.54783">
        <ele>879.26</ele>
        <time>2014-10-05T12:58:21Z</time>
      </trkpt>
      <trkpt lat="45.42225" lon="4.54809">
        <ele>881.67</ele>
        <time>2014-10-05T12:58:34Z</time>
      </trkpt>
      <trkpt lat="45.42265" lon="4.54846">
        <ele>883.11</ele>
        <time>2014-10-05T12:58:47Z</time>
      </trkpt>
      <trkpt lat="45.42297" lon="4.54879">
        <ele>883.11</ele>
        <time>2014-10-05T12:58:56Z</time>
      </trkpt>
      <trkpt lat="45.42321" lon="4.54903">
        <ele>883.11</ele>
        <time>2014-10-05T12:59:02Z</time>
      </trkpt>
      <trkpt lat="45.42324" lon="4.54907">
        <ele>883.11</ele>
        <time>2014-10-05T12:59:03Z</time>
      </trkpt>
      <trkpt lat="45.4236" lon="4.54946">
        <ele>885.03</ele>
        <time>2014-10-05T12:59:15Z</time>
      </trkpt>
      <trkpt lat="45.42395" lon="4.54991">
        <ele>887.43</ele>
        <time>2014-10-05T12:59:28Z</time>
      </trkpt>
      <trkpt lat="45.42429" lon="4.55037">
        <ele>886.95</ele>
        <time>2014-10-05T12:59:37Z</time>
      </trkpt>
      <trkpt lat="45.42434" lon="4.55041">
        <ele>886.95</ele>
        <time>2014-10-05T12:59:38Z</time>
      </trkpt>
      <trkpt lat="45.42439" lon="4.55043">
        <ele>886.95</ele>
        <time>2014-10-05T12:59:39Z</time>
      </trkpt>
      <trkpt lat="45.42456" lon="4.55045">
        <ele>886.47</ele>
        <time>2014-10-05T12:59:42Z</time>
      </trkpt>
      <trkpt lat="45.42462" lon="4.55045">
        <ele>886.47</ele>
        <time>2014-10-05T12:59:43Z</time>
      </trkpt>
      <trkpt lat="45.42501" lon="4.55033">
        <ele>883.59</ele>
        <time>2014-10-05T12:59:49Z</time>
      </trkpt>
      <trkpt lat="45.42544" lon="4.55014">
        <ele>879.74</ele>
        <time>2014-10-05T12:59:54Z</time>
      </trkpt>
      <trkpt lat="45.42574" lon="4.55003">
        <ele>876.38</ele>
        <time>2014-10-05T12:59:57Z</time>
      </trkpt>
      <trkpt lat="45.42607" lon="4.54993">
        <ele>873.5</ele>
        <time>2014-10-05T13:00:00Z</time>
      </trkpt>
      <trkpt lat="45.42663" lon="4.5498">
        <ele>870.13</ele>
        <time>2014-10-05T13:00:05Z</time>
      </trkpt>
      <trkpt lat="45.4271" lon="4.54975">
        <ele>866.77</ele>
        <time>2014-10-05T13:00:09Z</time>
      </trkpt>
      <trkpt lat="45.42753" lon="4.54968">
        <ele>863.88</ele>
        <time>2014-10-05T13:00:13Z</time>
      </trkpt>
      <trkpt lat="45.42763" lon="4.54965">
        <ele>863.4</ele>
        <time>2014-10-05T13:00:14Z</time>
      </trkpt>
      <trkpt lat="45.42772" lon="4.5496">
        <ele>863.4</ele>
        <time>2014-10-05T13:00:15Z</time>
      </trkpt>
      <trkpt lat="45.4282" lon="4.54926">
        <ele>861.96</ele>
        <time>2014-10-05T13:00:21Z</time>
      </trkpt>
      <trkpt lat="45.42856" lon="4.54908">
        <ele>858.11</ele>
        <time>2014-10-05T13:00:26Z</time>
      </trkpt>
      <trkpt lat="45.42865" lon="4.54903">
        <ele>857.63</ele>
        <time>2014-10-05T13:00:27Z</time>
      </trkpt>
      <trkpt lat="45.4288" lon="4.54891">
        <ele>857.15</ele>
        <time>2014-10-05T13:00:29Z</time>
      </trkpt>
      <trkpt lat="45.4292" lon="4.54843">
        <ele>853.79</ele>
        <time>2014-10-05T13:00:35Z</time>
      </trkpt>
      <trkpt lat="45.42926" lon="4.54834">
        <ele>853.31</ele>
        <time>2014-10-05T13:00:36Z</time>
      </trkpt>
      <trkpt lat="45.42945" lon="4.54808">
        <ele>851.38</ele>
        <time>2014-10-05T13:00:39Z</time>
      </trkpt>
      <trkpt lat="45.42969" lon="4.54779">
        <ele>848.02</ele>
        <time>2014-10-05T13:00:42Z</time>
      </trkpt>
      <trkpt lat="45.42989" lon="4.54763">
        <ele>844.66</ele>
        <time>2014-10-05T13:00:44Z</time>
      </trkpt>
      <trkpt lat="45.43016" lon="4.54738">
        <ele>841.29</ele>
        <time>2014-10-05T13:00:47Z</time>
      </trkpt>
      <trkpt lat="45.43033" lon="4.54726">
        <ele>838.41</ele>
        <time>2014-10-05T13:00:49Z</time>
      </trkpt>
      <trkpt lat="45.43048" lon="4.54708">
        <ele>834.56</ele>
        <time>2014-10-05T13:00:51Z</time>
      </trkpt>
      <trkpt lat="45.43061" lon="4.54693">
        <ele>832.64</ele>
        <time>2014-10-05T13:00:53Z</time>
      </trkpt>
      <trkpt lat="45.43067" lon="4.54687">
        <ele>831.68</ele>
        <time>2014-10-05T13:00:54Z</time>
      </trkpt>
      <trkpt lat="45.43072" lon="4.54684">
        <ele>831.2</ele>
        <time>2014-10-05T13:00:55Z</time>
      </trkpt>
      <trkpt lat="45.43078" lon="4.5468">
        <ele>830.72</ele>
        <time>2014-10-05T13:00:56Z</time>
      </trkpt>
      <trkpt lat="45.43086" lon="4.54679">
        <ele>830.24</ele>
        <time>2014-10-05T13:00:57Z</time>
      </trkpt>
      <trkpt lat="45.43094" lon="4.54677">
        <ele>829.27</ele>
        <time>2014-10-05T13:00:58Z</time>
      </trkpt>
      <trkpt lat="45.43103" lon="4.54675">
        <ele>827.83</ele>
        <time>2014-10-05T13:00:59Z</time>
      </trkpt>
      <trkpt lat="45.43113" lon="4.54671">
        <ele>825.91</ele>
        <time>2014-10-05T13:01:00Z</time>
      </trkpt>
      <trkpt lat="45.43122" lon="4.54663">
        <ele>824.95</ele>
        <time>2014-10-05T13:01:01Z</time>
      </trkpt>
      <trkpt lat="45.43131" lon="4.54654">
        <ele>823.99</ele>
        <time>2014-10-05T13:01:02Z</time>
      </trkpt>
      <trkpt lat="45.43137" lon="4.54644">
        <ele>823.99</ele>
        <time>2014-10-05T13:01:03Z</time>
      </trkpt>
      <trkpt lat="45.43144" lon="4.54634">
        <ele>823.99</ele>
        <time>2014-10-05T13:01:04Z</time>
      </trkpt>
      <trkpt lat="45.43203" lon="4.54538">
        <ele>824.95</ele>
        <time>2014-10-05T13:01:16Z</time>
      </trkpt>
      <trkpt lat="45.43208" lon="4.54534">
        <ele>824.95</ele>
        <time>2014-10-05T13:01:17Z</time>
      </trkpt>
      <trkpt lat="45.43214" lon="4.54532">
        <ele>824.47</ele>
        <time>2014-10-05T13:01:18Z</time>
      </trkpt>
      <trkpt lat="45.43235" lon="4.54526">
        <ele>823.51</ele>
        <time>2014-10-05T13:01:21Z</time>
      </trkpt>
      <trkpt lat="45.43242" lon="4.54526">
        <ele>823.51</ele>
        <time>2014-10-05T13:01:22Z</time>
      </trkpt>
      <trkpt lat="45.4325" lon="4.54528">
        <ele>823.03</ele>
        <time>2014-10-05T13:01:23Z</time>
      </trkpt>
      <trkpt lat="45.43265" lon="4.54533">
        <ele>822.06</ele>
        <time>2014-10-05T13:01:25Z</time>
      </trkpt>
      <trkpt lat="45.43273" lon="4.54537">
        <ele>821.58</ele>
        <time>2014-10-05T13:01:26Z</time>
      </trkpt>
      <trkpt lat="45.43279" lon="4.54543">
        <ele>821.1</ele>
        <time>2014-10-05T13:01:27Z</time>
      </trkpt>
      <trkpt lat="45.43285" lon="4.54551">
        <ele>821.1</ele>
        <time>2014-10-05T13:01:28Z</time>
      </trkpt>
      <trkpt lat="45.43334" lon="4.54627">
        <ele>817.26</ele>
        <time>2014-10-05T13:01:37Z</time>
      </trkpt>
      <trkpt lat="45.43344" lon="4.54646">
        <ele>816.78</ele>
        <time>2014-10-05T13:01:39Z</time>
      </trkpt>
      <trkpt lat="45.43347" lon="4.54657">
        <ele>816.3</ele>
        <time>2014-10-05T13:01:40Z</time>
      </trkpt>
      <trkpt lat="45.43349" lon="4.54668">
        <ele>815.82</ele>
        <time>2014-10-05T13:01:41Z</time>
      </trkpt>
      <trkpt lat="45.43353" lon="4.54718">
        <ele>815.34</ele>
        <time>2014-10-05T13:01:46Z</time>
      </trkpt>
      <trkpt lat="45.43356" lon="4.54736">
        <ele>815.82</ele>
        <time>2014-10-05T13:01:48Z</time>
      </trkpt>
      <trkpt lat="45.43356" lon="4.54744">
        <ele>815.82</ele>
        <time>2014-10-05T13:01:49Z</time>
      </trkpt>
      <trkpt lat="45.43356" lon="4.54751">
        <ele>815.82</ele>
        <time>2014-10-05T13:01:50Z</time>
      </trkpt>
      <trkpt lat="45.43354" lon="4.54757">
        <ele>815.82</ele>
        <time>2014-10-05T13:01:51Z</time>
      </trkpt>
      <trkpt lat="45.43353" lon="4.54762">
        <ele>815.82</ele>
        <time>2014-10-05T13:01:52Z</time>
      </trkpt>
      <trkpt lat="45.43352" lon="4.54766">
        <ele>816.3</ele>
        <time>2014-10-05T13:01:53Z</time>
      </trkpt>
      <trkpt lat="45.43347" lon="4.54801">
        <ele>819.18</ele>
        <time>2014-10-05T13:02:04Z</time>
      </trkpt>
      <trkpt lat="45.43339" lon="4.54837">
        <ele>822.06</ele>
        <time>2014-10-05T13:02:18Z</time>
      </trkpt>
      <trkpt lat="45.43332" lon="4.54872">
        <ele>825.43</ele>
        <time>2014-10-05T13:02:31Z</time>
      </trkpt>
      <trkpt lat="45.43329" lon="4.54915">
        <ele>827.35</ele>
        <time>2014-10-05T13:02:47Z</time>
      </trkpt>
      <trkpt lat="45.43332" lon="4.54966">
        <ele>830.72</ele>
        <time>2014-10-05T13:03:04Z</time>
      </trkpt>
      <trkpt lat="45.43328" lon="4.55004">
        <ele>833.12</ele>
        <time>2014-10-05T13:03:18Z</time>
      </trkpt>
      <trkpt lat="45.43324" lon="4.55023">
        <ele>835.04</ele>
        <time>2014-10-05T13:03:26Z</time>
      </trkpt>
      <trkpt lat="45.43317" lon="4.55041">
        <ele>835.52</ele>
        <time>2014-10-05T13:03:33Z</time>
      </trkpt>
      <trkpt lat="45.43315" lon="4.55085">
        <ele>837.45</ele>
        <time>2014-10-05T13:03:46Z</time>
      </trkpt>
      <trkpt lat="45.43312" lon="4.55112">
        <ele>838.89</ele>
        <time>2014-10-05T13:03:55Z</time>
      </trkpt>
      <trkpt lat="45.43309" lon="4.5515">
        <ele>839.37</ele>
        <time>2014-10-05T13:04:05Z</time>
      </trkpt>
      <trkpt lat="45.43308" lon="4.55195">
        <ele>840.81</ele>
        <time>2014-10-05T13:04:16Z</time>
      </trkpt>
      <trkpt lat="45.43309" lon="4.55201">
        <ele>841.29</ele>
        <time>2014-10-05T13:04:18Z</time>
      </trkpt>
      <trkpt lat="45.43308" lon="4.55214">
        <ele>842.73</ele>
        <time>2014-10-05T13:04:22Z</time>
      </trkpt>
      <trkpt lat="45.43301" lon="4.55271">
        <ele>844.18</ele>
        <time>2014-10-05T13:04:38Z</time>
      </trkpt>
      <trkpt lat="45.43302" lon="4.55311">
        <ele>846.58</ele>
        <time>2014-10-05T13:04:50Z</time>
      </trkpt>
      <trkpt lat="45.43301" lon="4.55314">
        <ele>846.58</ele>
        <time>2014-10-05T13:04:51Z</time>
      </trkpt>
      <trkpt lat="45.43303" lon="4.55368">
        <ele>847.06</ele>
        <time>2014-10-05T13:05:04Z</time>
      </trkpt>
      <trkpt lat="45.43304" lon="4.55379">
        <ele>847.54</ele>
        <time>2014-10-05T13:05:06Z</time>
      </trkpt>
      <trkpt lat="45.43305" lon="4.5539">
        <ele>847.54</ele>
        <time>2014-10-05T13:05:08Z</time>
      </trkpt>
      <trkpt lat="45.43306" lon="4.55396">
        <ele>847.06</ele>
        <time>2014-10-05T13:05:09Z</time>
      </trkpt>
      <trkpt lat="45.43306" lon="4.55403">
        <ele>847.06</ele>
        <time>2014-10-05T13:05:10Z</time>
      </trkpt>
      <trkpt lat="45.43317" lon="4.55487">
        <ele>846.58</ele>
        <time>2014-10-05T13:05:22Z</time>
      </trkpt>
      <trkpt lat="45.43322" lon="4.55534">
        <ele>846.1</ele>
        <time>2014-10-05T13:05:28Z</time>
      </trkpt>
      <trkpt lat="45.43324" lon="4.55561">
        <ele>845.14</ele>
        <time>2014-10-05T13:05:31Z</time>
      </trkpt>
      <trkpt lat="45.43327" lon="4.55579">
        <ele>844.66</ele>
        <time>2014-10-05T13:05:33Z</time>
      </trkpt>
      <trkpt lat="45.4333" lon="4.55613">
        <ele>843.69</ele>
        <time>2014-10-05T13:05:37Z</time>
      </trkpt>
      <trkpt lat="45.43348" lon="4.55678">
        <ele>840.81</ele>
        <time>2014-10-05T13:05:44Z</time>
      </trkpt>
      <trkpt lat="45.43361" lon="4.55705">
        <ele>837.45</ele>
        <time>2014-10-05T13:05:47Z</time>
      </trkpt>
      <trkpt lat="45.43379" lon="4.55738">
        <ele>833.6</ele>
        <time>2014-10-05T13:05:51Z</time>
      </trkpt>
      <trkpt lat="45.43398" lon="4.55764">
        <ele>830.24</ele>
        <time>2014-10-05T13:05:54Z</time>
      </trkpt>
      <trkpt lat="45.43411" lon="4.5578">
        <ele>825.43</ele>
        <time>2014-10-05T13:05:56Z</time>
      </trkpt>
      <trkpt lat="45.43432" lon="4.55805">
        <ele>821.1</ele>
        <time>2014-10-05T13:05:59Z</time>
      </trkpt>
      <trkpt lat="45.43449" lon="4.55825">
        <ele>818.22</ele>
        <time>2014-10-05T13:06:01Z</time>
      </trkpt>
      <trkpt lat="45.43459" lon="4.55835">
        <ele>817.26</ele>
        <time>2014-10-05T13:06:02Z</time>
      </trkpt>
      <trkpt lat="45.43497" lon="4.55863">
        <ele>813.89</ele>
        <time>2014-10-05T13:06:06Z</time>
      </trkpt>
      <trkpt lat="45.43529" lon="4.55872">
        <ele>811.01</ele>
        <time>2014-10-05T13:06:10Z</time>
      </trkpt>
      <trkpt lat="45.43534" lon="4.55875">
        <ele>810.53</ele>
        <time>2014-10-05T13:06:11Z</time>
      </trkpt>
      <trkpt lat="45.43537" lon="4.55879">
        <ele>810.05</ele>
        <time>2014-10-05T13:06:12Z</time>
      </trkpt>
      <trkpt lat="45.43539" lon="4.55883">
        <ele>809.09</ele>
        <time>2014-10-05T13:06:13Z</time>
      </trkpt>
      <trkpt lat="45.43541" lon="4.55886">
        <ele>808.13</ele>
        <time>2014-10-05T13:06:14Z</time>
      </trkpt>
      <trkpt lat="45.43541" lon="4.5589">
        <ele>807.16</ele>
        <time>2014-10-05T13:06:15Z</time>
      </trkpt>
      <trkpt lat="45.43541" lon="4.55897">
        <ele>806.2</ele>
        <time>2014-10-05T13:06:16Z</time>
      </trkpt>
      <trkpt lat="45.43541" lon="4.55911">
        <ele>803.32</ele>
        <time>2014-10-05T13:06:18Z</time>
      </trkpt>
      <trkpt lat="45.43539" lon="4.55918">
        <ele>801.88</ele>
        <time>2014-10-05T13:06:19Z</time>
      </trkpt>
      <trkpt lat="45.43531" lon="4.55941">
        <ele>798.03</ele>
        <time>2014-10-05T13:06:22Z</time>
      </trkpt>
      <trkpt lat="45.43528" lon="4.55947">
        <ele>795.63</ele>
        <time>2014-10-05T13:06:23Z</time>
      </trkpt>
      <trkpt lat="45.43523" lon="4.55953">
        <ele>794.19</ele>
        <time>2014-10-05T13:06:24Z</time>
      </trkpt>
      <trkpt lat="45.43515" lon="4.55967">
        <ele>791.3</ele>
        <time>2014-10-05T13:06:26Z</time>
      </trkpt>
      <trkpt lat="45.43511" lon="4.55976">
        <ele>789.86</ele>
        <time>2014-10-05T13:06:27Z</time>
      </trkpt>
      <trkpt lat="45.43506" lon="4.55999">
        <ele>786.98</ele>
        <time>2014-10-05T13:06:29Z</time>
      </trkpt>
      <trkpt lat="45.43502" lon="4.56028">
        <ele>783.13</ele>
        <time>2014-10-05T13:06:31Z</time>
      </trkpt>
      <trkpt lat="45.43499" lon="4.56071">
        <ele>779.29</ele>
        <time>2014-10-05T13:06:34Z</time>
      </trkpt>
      <trkpt lat="45.435" lon="4.56084">
        <ele>778.32</ele>
        <time>2014-10-05T13:06:35Z</time>
      </trkpt>
      <trkpt lat="45.43505" lon="4.56123">
        <ele>774.48</ele>
        <time>2014-10-05T13:06:38Z</time>
      </trkpt>
      <trkpt lat="45.43508" lon="4.56135">
        <ele>773.52</ele>
        <time>2014-10-05T13:06:39Z</time>
      </trkpt>
      <trkpt lat="45.43513" lon="4.56147">
        <ele>772.08</ele>
        <time>2014-10-05T13:06:40Z</time>
      </trkpt>
      <trkpt lat="45.43517" lon="4.56158">
        <ele>770.63</ele>
        <time>2014-10-05T13:06:41Z</time>
      </trkpt>
      <trkpt lat="45.4352" lon="4.56169">
        <ele>769.67</ele>
        <time>2014-10-05T13:06:42Z</time>
      </trkpt>
      <trkpt lat="45.43522" lon="4.56177">
        <ele>769.19</ele>
        <time>2014-10-05T13:06:43Z</time>
      </trkpt>
      <trkpt lat="45.43525" lon="4.56184">
        <ele>768.71</ele>
        <time>2014-10-05T13:06:44Z</time>
      </trkpt>
      <trkpt lat="45.43529" lon="4.5619">
        <ele>767.75</ele>
        <time>2014-10-05T13:06:45Z</time>
      </trkpt>
      <trkpt lat="45.43532" lon="4.56195">
        <ele>767.75</ele>
        <time>2014-10-05T13:06:46Z</time>
      </trkpt>
      <trkpt lat="45.43535" lon="4.562">
        <ele>767.75</ele>
        <time>2014-10-05T13:06:47Z</time>
      </trkpt>
      <trkpt lat="45.43538" lon="4.56205">
        <ele>767.27</ele>
        <time>2014-10-05T13:06:48Z</time>
      </trkpt>
      <trkpt lat="45.43544" lon="4.56212">
        <ele>765.35</ele>
        <time>2014-10-05T13:06:50Z</time>
      </trkpt>
      <trkpt lat="45.43547" lon="4.56214">
        <ele>765.35</ele>
        <time>2014-10-05T13:06:51Z</time>
      </trkpt>
      <trkpt lat="45.43551" lon="4.56217">
        <ele>764.87</ele>
        <time>2014-10-05T13:06:52Z</time>
      </trkpt>
      <trkpt lat="45.43556" lon="4.5622">
        <ele>764.39</ele>
        <time>2014-10-05T13:06:53Z</time>
      </trkpt>
      <trkpt lat="45.4356" lon="4.56221">
        <ele>763.42</ele>
        <time>2014-10-05T13:06:54Z</time>
      </trkpt>
      <trkpt lat="45.43566" lon="4.56221">
        <ele>762.94</ele>
        <time>2014-10-05T13:06:55Z</time>
      </trkpt>
      <trkpt lat="45.43571" lon="4.56218">
        <ele>762.94</ele>
        <time>2014-10-05T13:06:56Z</time>
      </trkpt>
      <trkpt lat="45.43576" lon="4.56215">
        <ele>762.94</ele>
        <time>2014-10-05T13:06:57Z</time>
      </trkpt>
      <trkpt lat="45.43582" lon="4.5621">
        <ele>762.46</ele>
        <time>2014-10-05T13:06:58Z</time>
      </trkpt>
      <trkpt lat="45.43586" lon="4.56204">
        <ele>762.94</ele>
        <time>2014-10-05T13:06:59Z</time>
      </trkpt>
      <trkpt lat="45.4359" lon="4.56198">
        <ele>762.94</ele>
        <time>2014-10-05T13:07:00Z</time>
      </trkpt>
      <trkpt lat="45.43594" lon="4.5619">
        <ele>762.46</ele>
        <time>2014-10-05T13:07:01Z</time>
      </trkpt>
      <trkpt lat="45.43598" lon="4.56183">
        <ele>762.46</ele>
        <time>2014-10-05T13:07:02Z</time>
      </trkpt>
      <trkpt lat="45.43634" lon="4.56114">
        <ele>759.58</ele>
        <time>2014-10-05T13:07:10Z</time>
      </trkpt>
      <trkpt lat="45.43658" lon="4.5606">
        <ele>755.25</ele>
        <time>2014-10-05T13:07:15Z</time>
      </trkpt>
      <trkpt lat="45.43668" lon="4.56043">
        <ele>754.29</ele>
        <time>2014-10-05T13:07:17Z</time>
      </trkpt>
      <trkpt lat="45.43679" lon="4.56025">
        <ele>753.33</ele>
        <time>2014-10-05T13:07:19Z</time>
      </trkpt>
      <trkpt lat="45.43684" lon="4.56014">
        <ele>753.33</ele>
        <time>2014-10-05T13:07:20Z</time>
      </trkpt>
      <trkpt lat="45.43692" lon="4.55991">
        <ele>753.33</ele>
        <time>2014-10-05T13:07:22Z</time>
      </trkpt>
      <trkpt lat="45.43695" lon="4.55979">
        <ele>753.33</ele>
        <time>2014-10-05T13:07:23Z</time>
      </trkpt>
      <trkpt lat="45.437" lon="4.55956">
        <ele>753.81</ele>
        <time>2014-10-05T13:07:25Z</time>
      </trkpt>
      <trkpt lat="45.43702" lon="4.55935">
        <ele>754.29</ele>
        <time>2014-10-05T13:07:27Z</time>
      </trkpt>
      <trkpt lat="45.43715" lon="4.5587">
        <ele>756.21</ele>
        <time>2014-10-05T13:07:36Z</time>
      </trkpt>
      <trkpt lat="45.43716" lon="4.55864">
        <ele>756.21</ele>
        <time>2014-10-05T13:07:37Z</time>
      </trkpt>
      <trkpt lat="45.43719" lon="4.55858">
        <ele>756.69</ele>
        <time>2014-10-05T13:07:38Z</time>
      </trkpt>
      <trkpt lat="45.43725" lon="4.55841">
        <ele>757.18</ele>
        <time>2014-10-05T13:07:41Z</time>
      </trkpt>
      <trkpt lat="45.43731" lon="4.55829">
        <ele>757.18</ele>
        <time>2014-10-05T13:07:43Z</time>
      </trkpt>
      <trkpt lat="45.43733" lon="4.55824">
        <ele>757.18</ele>
        <time>2014-10-05T13:07:44Z</time>
      </trkpt>
      <trkpt lat="45.43737" lon="4.55819">
        <ele>757.18</ele>
        <time>2014-10-05T13:07:45Z</time>
      </trkpt>
      <trkpt lat="45.43765" lon="4.55785">
        <ele>757.66</ele>
        <time>2014-10-05T13:07:52Z</time>
      </trkpt>
      <trkpt lat="45.43775" lon="4.55776">
        <ele>758.14</ele>
        <time>2014-10-05T13:07:54Z</time>
      </trkpt>
      <trkpt lat="45.43789" lon="4.55766">
        <ele>758.14</ele>
        <time>2014-10-05T13:07:57Z</time>
      </trkpt>
      <trkpt lat="45.43795" lon="4.55763">
        <ele>758.62</ele>
        <time>2014-10-05T13:07:58Z</time>
      </trkpt>
      <trkpt lat="45.43821" lon="4.55758">
        <ele>758.62</ele>
        <time>2014-10-05T13:08:03Z</time>
      </trkpt>
      <trkpt lat="45.43827" lon="4.55759">
        <ele>758.62</ele>
        <time>2014-10-05T13:08:04Z</time>
      </trkpt>
      <trkpt lat="45.43837" lon="4.5576">
        <ele>758.62</ele>
        <time>2014-10-05T13:08:06Z</time>
      </trkpt>
      <trkpt lat="45.4385" lon="4.55765">
        <ele>759.1</ele>
        <time>2014-10-05T13:08:09Z</time>
      </trkpt>
      <trkpt lat="45.43858" lon="4.5577">
        <ele>759.1</ele>
        <time>2014-10-05T13:08:11Z</time>
      </trkpt>
      <trkpt lat="45.43879" lon="4.55793">
        <ele>757.18</ele>
        <time>2014-10-05T13:08:16Z</time>
      </trkpt>
      <trkpt lat="45.43884" lon="4.55799">
        <ele>756.69</ele>
        <time>2014-10-05T13:08:17Z</time>
      </trkpt>
      <trkpt lat="45.43927" lon="4.55854">
        <ele>753.33</ele>
        <time>2014-10-05T13:08:24Z</time>
      </trkpt>
      <trkpt lat="45.43955" lon="4.55885">
        <ele>749.97</ele>
        <time>2014-10-05T13:08:28Z</time>
      </trkpt>
      <trkpt lat="45.43975" lon="4.55904">
        <ele>748.04</ele>
        <time>2014-10-05T13:08:31Z</time>
      </trkpt>
      <trkpt lat="45.43983" lon="4.55908">
        <ele>747.08</ele>
        <time>2014-10-05T13:08:32Z</time>
      </trkpt>
      <trkpt lat="45.43989" lon="4.5591">
        <ele>747.56</ele>
        <time>2014-10-05T13:08:33Z</time>
      </trkpt>
      <trkpt lat="45.44" lon="4.55913">
        <ele>748.04</ele>
        <time>2014-10-05T13:08:35Z</time>
      </trkpt>
      <trkpt lat="45.44005" lon="4.55912">
        <ele>748.52</ele>
        <time>2014-10-05T13:08:36Z</time>
      </trkpt>
      <trkpt lat="45.44045" lon="4.55913">
        <ele>750.45</ele>
        <time>2014-10-05T13:08:47Z</time>
      </trkpt>
      <trkpt lat="45.44053" lon="4.55917">
        <ele>750.93</ele>
        <time>2014-10-05T13:08:50Z</time>
      </trkpt>
      <trkpt lat="45.44055" lon="4.5592">
        <ele>750.93</ele>
        <time>2014-10-05T13:08:51Z</time>
      </trkpt>
      <trkpt lat="45.44056" lon="4.55925">
        <ele>750.45</ele>
        <time>2014-10-05T13:08:52Z</time>
      </trkpt>
      <trkpt lat="45.44058" lon="4.55928">
        <ele>749.49</ele>
        <time>2014-10-05T13:08:53Z</time>
      </trkpt>
      <trkpt lat="45.4406" lon="4.55929">
        <ele>749.49</ele>
        <time>2014-10-05T13:08:54Z</time>
      </trkpt>
      <trkpt lat="45.44062" lon="4.55932">
        <ele>749.49</ele>
        <time>2014-10-05T13:08:55Z</time>
      </trkpt>
      <trkpt lat="45.44065" lon="4.55934">
        <ele>748.52</ele>
        <time>2014-10-05T13:08:56Z</time>
      </trkpt>
      <trkpt lat="45.44068" lon="4.55937">
        <ele>748.52</ele>
        <time>2014-10-05T13:08:57Z</time>
      </trkpt>
      <trkpt lat="45.4407" lon="4.5594">
        <ele>748.04</ele>
        <time>2014-10-05T13:08:58Z</time>
      </trkpt>
      <trkpt lat="45.44072" lon="4.55944">
        <ele>747.08</ele>
        <time>2014-10-05T13:08:59Z</time>
      </trkpt>
      <trkpt lat="45.44074" lon="4.55947">
        <ele>746.12</ele>
        <time>2014-10-05T13:09:00Z</time>
      </trkpt>
      <trkpt lat="45.44075" lon="4.55949">
        <ele>745.16</ele>
        <time>2014-10-05T13:09:01Z</time>
      </trkpt>
      <trkpt lat="45.44077" lon="4.55952">
        <ele>744.68</ele>
        <time>2014-10-05T13:09:02Z</time>
      </trkpt>
      <trkpt lat="45.44082" lon="4.55961">
        <ele>742.28</ele>
        <time>2014-10-05T13:09:05Z</time>
      </trkpt>
      <trkpt lat="45.44082" lon="4.55964">
        <ele>741.31</ele>
        <time>2014-10-05T13:09:06Z</time>
      </trkpt>
      <trkpt lat="45.44082" lon="4.55969">
        <ele>740.83</ele>
        <time>2014-10-05T13:09:07Z</time>
      </trkpt>
      <trkpt lat="45.4408" lon="4.55975">
        <ele>738.91</ele>
        <time>2014-10-05T13:09:09Z</time>
      </trkpt>
      <trkpt lat="45.44081" lon="4.55979">
        <ele>737.95</ele>
        <time>2014-10-05T13:09:10Z</time>
      </trkpt>
      <trkpt lat="45.44081" lon="4.55982">
        <ele>736.99</ele>
        <time>2014-10-05T13:09:11Z</time>
      </trkpt>
      <trkpt lat="45.44082" lon="4.55987">
        <ele>736.03</ele>
        <time>2014-10-05T13:09:12Z</time>
      </trkpt>
      <trkpt lat="45.44083" lon="4.55992">
        <ele>734.58</ele>
        <time>2014-10-05T13:09:13Z</time>
      </trkpt>
      <trkpt lat="45.44084" lon="4.55995">
        <ele>734.1</ele>
        <time>2014-10-05T13:09:14Z</time>
      </trkpt>
      <trkpt lat="45.44085" lon="4.55997">
        <ele>733.62</ele>
        <time>2014-10-05T13:09:15Z</time>
      </trkpt>
      <trkpt lat="45.44086" lon="4.55998">
        <ele>733.62</ele>
        <time>2014-10-05T13:09:16Z</time>
      </trkpt>
      <trkpt lat="45.44087" lon="4.56008">
        <ele>729.78</ele>
        <time>2014-10-05T13:09:20Z</time>
      </trkpt>
      <trkpt lat="45.4409" lon="4.5602">
        <ele>726.41</ele>
        <time>2014-10-05T13:09:23Z</time>
      </trkpt>
      <trkpt lat="45.44092" lon="4.56024">
        <ele>726.41</ele>
        <time>2014-10-05T13:09:24Z</time>
      </trkpt>
      <trkpt lat="45.44098" lon="4.56036">
        <ele>723.05</ele>
        <time>2014-10-05T13:09:28Z</time>
      </trkpt>
      <trkpt lat="45.44098" lon="4.56037">
        <ele>721.13</ele>
        <time>2014-10-05T13:09:30Z</time>
      </trkpt>
      <trkpt lat="45.44089" lon="4.56048">
        <ele>715.84</ele>
        <time>2014-10-05T13:09:34Z</time>
      </trkpt>
      <trkpt lat="45.44084" lon="4.5606">
        <ele>712.95</ele>
        <time>2014-10-05T13:09:37Z</time>
      </trkpt>
      <trkpt lat="45.44084" lon="4.56074">
        <ele>711.03</ele>
        <time>2014-10-05T13:09:40Z</time>
      </trkpt>
      <trkpt lat="45.4409" lon="4.56105">
        <ele>709.59</ele>
        <time>2014-10-05T13:09:46Z</time>
      </trkpt>
      <trkpt lat="45.44092" lon="4.5611">
        <ele>709.59</ele>
        <time>2014-10-05T13:09:47Z</time>
      </trkpt>
      <trkpt lat="45.44094" lon="4.56115">
        <ele>709.11</ele>
        <time>2014-10-05T13:09:48Z</time>
      </trkpt>
      <trkpt lat="45.44109" lon="4.56142">
        <ele>709.11</ele>
        <time>2014-10-05T13:09:57Z</time>
      </trkpt>
      <trkpt lat="45.44114" lon="4.56148">
        <ele>708.15</ele>
        <time>2014-10-05T13:09:59Z</time>
      </trkpt>
      <trkpt lat="45.44116" lon="4.56149">
        <ele>707.67</ele>
        <time>2014-10-05T13:10:00Z</time>
      </trkpt>
      <trkpt lat="45.44119" lon="4.5615">
        <ele>708.15</ele>
        <time>2014-10-05T13:10:01Z</time>
      </trkpt>
      <trkpt lat="45.4412" lon="4.56153">
        <ele>708.15</ele>
        <time>2014-10-05T13:10:02Z</time>
      </trkpt>
      <trkpt lat="45.44122" lon="4.56153">
        <ele>708.63</ele>
        <time>2014-10-05T13:10:03Z</time>
      </trkpt>
      <trkpt lat="45.44124" lon="4.56153">
        <ele>708.63</ele>
        <time>2014-10-05T13:10:04Z</time>
      </trkpt>
      <trkpt lat="45.44126" lon="4.56153">
        <ele>709.11</ele>
        <time>2014-10-05T13:10:05Z</time>
      </trkpt>
      <trkpt lat="45.44127" lon="4.56153">
        <ele>709.11</ele>
        <time>2014-10-05T13:10:06Z</time>
      </trkpt>
      <trkpt lat="45.44129" lon="4.56154">
        <ele>709.59</ele>
        <time>2014-10-05T13:10:07Z</time>
      </trkpt>
      <trkpt lat="45.44131" lon="4.56155">
        <ele>709.59</ele>
        <time>2014-10-05T13:10:08Z</time>
      </trkpt>
      <trkpt lat="45.44153" lon="4.56172">
        <ele>711.51</ele>
        <time>2014-10-05T13:10:19Z</time>
      </trkpt>
      <trkpt lat="45.44154" lon="4.56177">
        <ele>711.03</ele>
        <time>2014-10-05T13:10:20Z</time>
      </trkpt>
      <trkpt lat="45.44161" lon="4.562">
        <ele>711.03</ele>
        <time>2014-10-05T13:10:24Z</time>
      </trkpt>
      <trkpt lat="45.44163" lon="4.56206">
        <ele>710.07</ele>
        <time>2014-10-05T13:10:26Z</time>
      </trkpt>
      <trkpt lat="45.44164" lon="4.56209">
        <ele>710.07</ele>
        <time>2014-10-05T13:10:27Z</time>
      </trkpt>
      <trkpt lat="45.44164" lon="4.56212">
        <ele>710.07</ele>
        <time>2014-10-05T13:10:28Z</time>
      </trkpt>
      <trkpt lat="45.44166" lon="4.56216">
        <ele>709.59</ele>
        <time>2014-10-05T13:10:29Z</time>
      </trkpt>
      <trkpt lat="45.44167" lon="4.5622">
        <ele>710.07</ele>
        <time>2014-10-05T13:10:30Z</time>
      </trkpt>
      <trkpt lat="45.44168" lon="4.56225">
        <ele>710.07</ele>
        <time>2014-10-05T13:10:31Z</time>
      </trkpt>
      <trkpt lat="45.44169" lon="4.56229">
        <ele>710.07</ele>
        <time>2014-10-05T13:10:32Z</time>
      </trkpt>
      <trkpt lat="45.4417" lon="4.56234">
        <ele>710.07</ele>
        <time>2014-10-05T13:10:33Z</time>
      </trkpt>
      <trkpt lat="45.4417" lon="4.56239">
        <ele>709.59</ele>
        <time>2014-10-05T13:10:34Z</time>
      </trkpt>
      <trkpt lat="45.4417" lon="4.56245">
        <ele>709.59</ele>
        <time>2014-10-05T13:10:35Z</time>
      </trkpt>
      <trkpt lat="45.4417" lon="4.56251">
        <ele>708.63</ele>
        <time>2014-10-05T13:10:36Z</time>
      </trkpt>
      <trkpt lat="45.44171" lon="4.56256">
        <ele>708.63</ele>
        <time>2014-10-05T13:10:37Z</time>
      </trkpt>
      <trkpt lat="45.44172" lon="4.56261">
        <ele>708.63</ele>
        <time>2014-10-05T13:10:38Z</time>
      </trkpt>
      <trkpt lat="45.44172" lon="4.56264">
        <ele>708.63</ele>
        <time>2014-10-05T13:10:39Z</time>
      </trkpt>
      <trkpt lat="45.44171" lon="4.56266">
        <ele>708.15</ele>
        <time>2014-10-05T13:10:40Z</time>
      </trkpt>
      <trkpt lat="45.4417" lon="4.56268">
        <ele>707.67</ele>
        <time>2014-10-05T13:10:41Z</time>
      </trkpt>
      <trkpt lat="45.44168" lon="4.56272">
        <ele>706.23</ele>
        <time>2014-10-05T13:10:43Z</time>
      </trkpt>
      <trkpt lat="45.44168" lon="4.56273">
        <ele>706.23</ele>
        <time>2014-10-05T13:10:44Z</time>
      </trkpt>
      <trkpt lat="45.44169" lon="4.56335">
        <ele>707.67</ele>
        <time>2014-10-05T13:10:57Z</time>
      </trkpt>
      <trkpt lat="45.44165" lon="4.56377">
        <ele>707.67</ele>
        <time>2014-10-05T13:11:04Z</time>
      </trkpt>
      <trkpt lat="45.44155" lon="4.56457">
        <ele>705.26</ele>
        <time>2014-10-05T13:11:14Z</time>
      </trkpt>
      <trkpt lat="45.44156" lon="4.56471">
        <ele>704.78</ele>
        <time>2014-10-05T13:11:16Z</time>
      </trkpt>
      <trkpt lat="45.44156" lon="4.56476">
        <ele>704.78</ele>
        <time>2014-10-05T13:11:17Z</time>
      </trkpt>
      <trkpt lat="45.44156" lon="4.56481">
        <ele>704.78</ele>
        <time>2014-10-05T13:11:18Z</time>
      </trkpt>
      <trkpt lat="45.44155" lon="4.56484">
        <ele>705.26</ele>
        <time>2014-10-05T13:11:19Z</time>
      </trkpt>
      <trkpt lat="45.44137" lon="4.56501">
        <ele>700.46</ele>
        <time>2014-10-05T13:11:23Z</time>
      </trkpt>
      <trkpt lat="45.44125" lon="4.56511">
        <ele>698.05</ele>
        <time>2014-10-05T13:11:26Z</time>
      </trkpt>
      <trkpt lat="45.44117" lon="4.56517">
        <ele>694.69</ele>
        <time>2014-10-05T13:11:29Z</time>
      </trkpt>
      <trkpt lat="45.44112" lon="4.56528">
        <ele>693.25</ele>
        <time>2014-10-05T13:11:32Z</time>
      </trkpt>
      <trkpt lat="45.44104" lon="4.5654">
        <ele>689.4</ele>
        <time>2014-10-05T13:11:36Z</time>
      </trkpt>
      <trkpt lat="45.4409" lon="4.56548">
        <ele>685.08</ele>
        <time>2014-10-05T13:11:41Z</time>
      </trkpt>
      <trkpt lat="45.44083" lon="4.56554">
        <ele>681.71</ele>
        <time>2014-10-05T13:11:44Z</time>
      </trkpt>
      <trkpt lat="45.44076" lon="4.56555">
        <ele>678.35</ele>
        <time>2014-10-05T13:11:47Z</time>
      </trkpt>
      <trkpt lat="45.4407" lon="4.56555">
        <ele>675.46</ele>
        <time>2014-10-05T13:11:50Z</time>
      </trkpt>
      <trkpt lat="45.44066" lon="4.56564">
        <ele>674.98</ele>
        <time>2014-10-05T13:11:53Z</time>
      </trkpt>
      <trkpt lat="45.4407" lon="4.56613">
        <ele>675.94</ele>
        <time>2014-10-05T13:12:04Z</time>
      </trkpt>
      <trkpt lat="45.4409" lon="4.56648">
        <ele>676.91</ele>
        <time>2014-10-05T13:12:15Z</time>
      </trkpt>
      <trkpt lat="45.4411" lon="4.56662">
        <ele>673.54</ele>
        <time>2014-10-05T13:12:21Z</time>
      </trkpt>
      <trkpt lat="45.44114" lon="4.56664">
        <ele>673.06</ele>
        <time>2014-10-05T13:12:22Z</time>
      </trkpt>
      <trkpt lat="45.44123" lon="4.56675">
        <ele>672.1</ele>
        <time>2014-10-05T13:12:25Z</time>
      </trkpt>
      <trkpt lat="45.44125" lon="4.56686">
        <ele>668.73</ele>
        <time>2014-10-05T13:12:27Z</time>
      </trkpt>
      <trkpt lat="45.44128" lon="4.56696">
        <ele>665.37</ele>
        <time>2014-10-05T13:12:30Z</time>
      </trkpt>
      <trkpt lat="45.44127" lon="4.56714">
        <ele>662.01</ele>
        <time>2014-10-05T13:12:34Z</time>
      </trkpt>
      <trkpt lat="45.44127" lon="4.56719">
        <ele>662.01</ele>
        <time>2014-10-05T13:12:35Z</time>
      </trkpt>
      <trkpt lat="45.44126" lon="4.56745">
        <ele>662.49</ele>
        <time>2014-10-05T13:12:42Z</time>
      </trkpt>
      <trkpt lat="45.44124" lon="4.56753">
        <ele>663.45</ele>
        <time>2014-10-05T13:12:46Z</time>
      </trkpt>
      <trkpt lat="45.44125" lon="4.56763">
        <ele>664.41</ele>
        <time>2014-10-05T13:12:50Z</time>
      </trkpt>
      <trkpt lat="45.44127" lon="4.56794">
        <ele>664.41</ele>
        <time>2014-10-05T13:13:01Z</time>
      </trkpt>
      <trkpt lat="45.44122" lon="4.56809">
        <ele>660.56</ele>
        <time>2014-10-05T13:13:05Z</time>
      </trkpt>
      <trkpt lat="45.44108" lon="4.56819">
        <ele>656.24</ele>
        <time>2014-10-05T13:13:08Z</time>
      </trkpt>
      <trkpt lat="45.44103" lon="4.56821">
        <ele>653.83</ele>
        <time>2014-10-05T13:13:09Z</time>
      </trkpt>
      <trkpt lat="45.44092" lon="4.56838">
        <ele>651.43</ele>
        <time>2014-10-05T13:13:14Z</time>
      </trkpt>
      <trkpt lat="45.44091" lon="4.56841">
        <ele>651.91</ele>
        <time>2014-10-05T13:13:15Z</time>
      </trkpt>
      <trkpt lat="45.44095" lon="4.56878">
        <ele>652.87</ele>
        <time>2014-10-05T13:13:25Z</time>
      </trkpt>
      <trkpt lat="45.44094" lon="4.56912">
        <ele>653.35</ele>
        <time>2014-10-05T13:13:35Z</time>
      </trkpt>
      <trkpt lat="45.44098" lon="4.56957">
        <ele>651.43</ele>
        <time>2014-10-05T13:13:45Z</time>
      </trkpt>
      <trkpt lat="45.44093" lon="4.56969">
        <ele>648.07</ele>
        <time>2014-10-05T13:13:48Z</time>
      </trkpt>
      <trkpt lat="45.44086" lon="4.56982">
        <ele>644.7</ele>
        <time>2014-10-05T13:13:52Z</time>
      </trkpt>
      <trkpt lat="45.44084" lon="4.56985">
        <ele>643.26</ele>
        <time>2014-10-05T13:13:54Z</time>
      </trkpt>
      <trkpt lat="45.4408" lon="4.56988">
        <ele>642.3</ele>
        <time>2014-10-05T13:13:56Z</time>
      </trkpt>
      <trkpt lat="45.44077" lon="4.57">
        <ele>639.89</ele>
        <time>2014-10-05T13:14:01Z</time>
      </trkpt>
      <trkpt lat="45.44078" lon="4.57005">
        <ele>639.89</ele>
        <time>2014-10-05T13:14:02Z</time>
      </trkpt>
      <trkpt lat="45.44076" lon="4.57006">
        <ele>639.89</ele>
        <time>2014-10-05T13:14:04Z</time>
      </trkpt>
      <trkpt lat="45.44086" lon="4.57034">
        <ele>638.45</ele>
        <time>2014-10-05T13:14:11Z</time>
      </trkpt>
      <trkpt lat="45.44089" lon="4.57039">
        <ele>637.97</ele>
        <time>2014-10-05T13:14:12Z</time>
      </trkpt>
      <trkpt lat="45.44092" lon="4.57044">
        <ele>637.97</ele>
        <time>2014-10-05T13:14:13Z</time>
      </trkpt>
      <trkpt lat="45.44093" lon="4.57047">
        <ele>638.93</ele>
        <time>2014-10-05T13:14:14Z</time>
      </trkpt>
      <trkpt lat="45.44095" lon="4.57051">
        <ele>637.97</ele>
        <time>2014-10-05T13:14:15Z</time>
      </trkpt>
      <trkpt lat="45.44096" lon="4.57055">
        <ele>637.49</ele>
        <time>2014-10-05T13:14:16Z</time>
      </trkpt>
      <trkpt lat="45.44098" lon="4.5706">
        <ele>636.53</ele>
        <time>2014-10-05T13:14:17Z</time>
      </trkpt>
      <trkpt lat="45.44101" lon="4.57065">
        <ele>636.05</ele>
        <time>2014-10-05T13:14:18Z</time>
      </trkpt>
      <trkpt lat="45.44106" lon="4.57074">
        <ele>635.57</ele>
        <time>2014-10-05T13:14:19Z</time>
      </trkpt>
      <trkpt lat="45.44117" lon="4.57092">
        <ele>634.13</ele>
        <time>2014-10-05T13:14:21Z</time>
      </trkpt>
      <trkpt lat="45.44125" lon="4.57099">
        <ele>633.65</ele>
        <time>2014-10-05T13:14:22Z</time>
      </trkpt>
      <trkpt lat="45.44133" lon="4.57106">
        <ele>633.17</ele>
        <time>2014-10-05T13:14:23Z</time>
      </trkpt>
      <trkpt lat="45.44143" lon="4.57115">
        <ele>633.17</ele>
        <time>2014-10-05T13:14:24Z</time>
      </trkpt>
      <trkpt lat="45.44151" lon="4.57116">
        <ele>633.17</ele>
        <time>2014-10-05T13:14:25Z</time>
      </trkpt>
      <trkpt lat="45.44158" lon="4.57119">
        <ele>633.17</ele>
        <time>2014-10-05T13:14:26Z</time>
      </trkpt>
      <trkpt lat="45.44164" lon="4.57118">
        <ele>633.17</ele>
        <time>2014-10-05T13:14:27Z</time>
      </trkpt>
      <trkpt lat="45.44189" lon="4.57112">
        <ele>634.61</ele>
        <time>2014-10-05T13:14:31Z</time>
      </trkpt>
      <trkpt lat="45.44216" lon="4.57102">
        <ele>635.57</ele>
        <time>2014-10-05T13:14:36Z</time>
      </trkpt>
      <trkpt lat="45.44222" lon="4.57101">
        <ele>635.57</ele>
        <time>2014-10-05T13:14:37Z</time>
      </trkpt>
      <trkpt lat="45.44227" lon="4.57101">
        <ele>635.09</ele>
        <time>2014-10-05T13:14:38Z</time>
      </trkpt>
      <trkpt lat="45.44233" lon="4.57101">
        <ele>635.09</ele>
        <time>2014-10-05T13:14:39Z</time>
      </trkpt>
      <trkpt lat="45.4424" lon="4.57103">
        <ele>634.13</ele>
        <time>2014-10-05T13:14:40Z</time>
      </trkpt>
      <trkpt lat="45.44247" lon="4.57107">
        <ele>633.17</ele>
        <time>2014-10-05T13:14:41Z</time>
      </trkpt>
      <trkpt lat="45.44254" lon="4.57113">
        <ele>632.68</ele>
        <time>2014-10-05T13:14:42Z</time>
      </trkpt>
      <trkpt lat="45.4426" lon="4.57121">
        <ele>632.2</ele>
        <time>2014-10-05T13:14:43Z</time>
      </trkpt>
      <trkpt lat="45.44265" lon="4.57129">
        <ele>631.72</ele>
        <time>2014-10-05T13:14:44Z</time>
      </trkpt>
      <trkpt lat="45.44269" lon="4.57138">
        <ele>631.72</ele>
        <time>2014-10-05T13:14:45Z</time>
      </trkpt>
      <trkpt lat="45.44272" lon="4.57148">
        <ele>631.72</ele>
        <time>2014-10-05T13:14:46Z</time>
      </trkpt>
      <trkpt lat="45.44275" lon="4.57157">
        <ele>631.72</ele>
        <time>2014-10-05T13:14:47Z</time>
      </trkpt>
      <trkpt lat="45.44276" lon="4.57166">
        <ele>631.72</ele>
        <time>2014-10-05T13:14:48Z</time>
      </trkpt>
      <trkpt lat="45.44277" lon="4.57173">
        <ele>631.24</ele>
        <time>2014-10-05T13:14:49Z</time>
      </trkpt>
      <trkpt lat="45.44278" lon="4.57178">
        <ele>630.76</ele>
        <time>2014-10-05T13:14:50Z</time>
      </trkpt>
      <trkpt lat="45.44277" lon="4.57182">
        <ele>629.32</ele>
        <time>2014-10-05T13:14:51Z</time>
      </trkpt>
      <trkpt lat="45.44273" lon="4.57195">
        <ele>625.47</ele>
        <time>2014-10-05T13:14:55Z</time>
      </trkpt>
      <trkpt lat="45.44271" lon="4.57198">
        <ele>624.03</ele>
        <time>2014-10-05T13:14:56Z</time>
      </trkpt>
      <trkpt lat="45.4427" lon="4.572">
        <ele>622.59</ele>
        <time>2014-10-05T13:14:57Z</time>
      </trkpt>
      <trkpt lat="45.44268" lon="4.57203">
        <ele>621.63</ele>
        <time>2014-10-05T13:14:58Z</time>
      </trkpt>
      <trkpt lat="45.44267" lon="4.57205">
        <ele>620.67</ele>
        <time>2014-10-05T13:14:59Z</time>
      </trkpt>
      <trkpt lat="45.44266" lon="4.57206">
        <ele>620.19</ele>
        <time>2014-10-05T13:15:01Z</time>
      </trkpt>
      <trkpt lat="45.44265" lon="4.57206">
        <ele>620.19</ele>
        <time>2014-10-05T13:15:08Z</time>
      </trkpt>
      <trkpt lat="45.44264" lon="4.5721">
        <ele>620.19</ele>
        <time>2014-10-05T13:15:09Z</time>
      </trkpt>
      <trkpt lat="45.44263" lon="4.57215">
        <ele>619.71</ele>
        <time>2014-10-05T13:15:10Z</time>
      </trkpt>
      <trkpt lat="45.44259" lon="4.57234">
        <ele>617.78</ele>
        <time>2014-10-05T13:15:14Z</time>
      </trkpt>
      <trkpt lat="45.44255" lon="4.57255">
        <ele>617.3</ele>
        <time>2014-10-05T13:15:22Z</time>
      </trkpt>
      <trkpt lat="45.44259" lon="4.57271">
        <ele>619.71</ele>
        <time>2014-10-05T13:15:29Z</time>
      </trkpt>
      <trkpt lat="45.44261" lon="4.57291">
        <ele>620.67</ele>
        <time>2014-10-05T13:15:35Z</time>
      </trkpt>
      <trkpt lat="45.44272" lon="4.5733">
        <ele>620.67</ele>
        <time>2014-10-05T13:15:45Z</time>
      </trkpt>
      <trkpt lat="45.44274" lon="4.57336">
        <ele>620.19</ele>
        <time>2014-10-05T13:15:46Z</time>
      </trkpt>
      <trkpt lat="45.44277" lon="4.57342">
        <ele>620.19</ele>
        <time>2014-10-05T13:15:47Z</time>
      </trkpt>
      <trkpt lat="45.44288" lon="4.57371">
        <ele>616.82</ele>
        <time>2014-10-05T13:15:53Z</time>
      </trkpt>
      <trkpt lat="45.44311" lon="4.57409">
        <ele>617.3</ele>
        <time>2014-10-05T13:16:05Z</time>
      </trkpt>
      <trkpt lat="45.44315" lon="4.57424">
        <ele>613.94</ele>
        <time>2014-10-05T13:16:09Z</time>
      </trkpt>
      <trkpt lat="45.4432" lon="4.57429">
        <ele>612.98</ele>
        <time>2014-10-05T13:16:11Z</time>
      </trkpt>
      <trkpt lat="45.44335" lon="4.57451">
        <ele>610.09</ele>
        <time>2014-10-05T13:16:21Z</time>
      </trkpt>
      <trkpt lat="45.44343" lon="4.57463">
        <ele>607.21</ele>
        <time>2014-10-05T13:16:29Z</time>
      </trkpt>
      <trkpt lat="45.44346" lon="4.57464">
        <ele>607.21</ele>
        <time>2014-10-05T13:16:31Z</time>
      </trkpt>
      <trkpt lat="45.44377" lon="4.57507">
        <ele>603.85</ele>
        <time>2014-10-05T13:16:40Z</time>
      </trkpt>
      <trkpt lat="45.44384" lon="4.57523">
        <ele>600.48</ele>
        <time>2014-10-05T13:16:44Z</time>
      </trkpt>
      <trkpt lat="45.44386" lon="4.5753">
        <ele>597.6</ele>
        <time>2014-10-05T13:16:46Z</time>
      </trkpt>
      <trkpt lat="45.44403" lon="4.57551">
        <ele>593.27</ele>
        <time>2014-10-05T13:16:54Z</time>
      </trkpt>
      <trkpt lat="45.4441" lon="4.57557">
        <ele>592.79</ele>
        <time>2014-10-05T13:16:56Z</time>
      </trkpt>
      <trkpt lat="45.44412" lon="4.57559">
        <ele>591.83</ele>
        <time>2014-10-05T13:16:57Z</time>
      </trkpt>
      <trkpt lat="45.4442" lon="4.57576">
        <ele>587.5</ele>
        <time>2014-10-05T13:17:02Z</time>
      </trkpt>
      <trkpt lat="45.44422" lon="4.5758">
        <ele>587.02</ele>
        <time>2014-10-05T13:17:03Z</time>
      </trkpt>
      <trkpt lat="45.44421" lon="4.57596">
        <ele>582.7</ele>
        <time>2014-10-05T13:17:06Z</time>
      </trkpt>
      <trkpt lat="45.44423" lon="4.57602">
        <ele>581.25</ele>
        <time>2014-10-05T13:17:07Z</time>
      </trkpt>
      <trkpt lat="45.44425" lon="4.57609">
        <ele>580.77</ele>
        <time>2014-10-05T13:17:08Z</time>
      </trkpt>
      <trkpt lat="45.44428" lon="4.57614">
        <ele>579.81</ele>
        <time>2014-10-05T13:17:09Z</time>
      </trkpt>
      <trkpt lat="45.44431" lon="4.57618">
        <ele>579.33</ele>
        <time>2014-10-05T13:17:10Z</time>
      </trkpt>
      <trkpt lat="45.44433" lon="4.57622">
        <ele>578.37</ele>
        <time>2014-10-05T13:17:11Z</time>
      </trkpt>
      <trkpt lat="45.44434" lon="4.57627">
        <ele>577.41</ele>
        <time>2014-10-05T13:17:12Z</time>
      </trkpt>
      <trkpt lat="45.44434" lon="4.57631">
        <ele>576.45</ele>
        <time>2014-10-05T13:17:13Z</time>
      </trkpt>
      <trkpt lat="45.44434" lon="4.57636">
        <ele>575.97</ele>
        <time>2014-10-05T13:17:14Z</time>
      </trkpt>
      <trkpt lat="45.44436" lon="4.57643">
        <ele>575.01</ele>
        <time>2014-10-05T13:17:15Z</time>
      </trkpt>
      <trkpt lat="45.44437" lon="4.57647">
        <ele>573.56</ele>
        <time>2014-10-05T13:17:16Z</time>
      </trkpt>
      <trkpt lat="45.44439" lon="4.57652">
        <ele>572.6</ele>
        <time>2014-10-05T13:17:17Z</time>
      </trkpt>
      <trkpt lat="45.4444" lon="4.57658">
        <ele>571.64</ele>
        <time>2014-10-05T13:17:18Z</time>
      </trkpt>
      <trkpt lat="45.44441" lon="4.57664">
        <ele>570.68</ele>
        <time>2014-10-05T13:17:19Z</time>
      </trkpt>
      <trkpt lat="45.44442" lon="4.57668">
        <ele>569.72</ele>
        <time>2014-10-05T13:17:20Z</time>
      </trkpt>
      <trkpt lat="45.44441" lon="4.57673">
        <ele>568.76</ele>
        <time>2014-10-05T13:17:21Z</time>
      </trkpt>
      <trkpt lat="45.44441" lon="4.57677">
        <ele>568.28</ele>
        <time>2014-10-05T13:17:22Z</time>
      </trkpt>
      <trkpt lat="45.4444" lon="4.57684">
        <ele>566.83</ele>
        <time>2014-10-05T13:17:24Z</time>
      </trkpt>
      <trkpt lat="45.44441" lon="4.57691">
        <ele>566.35</ele>
        <time>2014-10-05T13:17:27Z</time>
      </trkpt>
      <trkpt lat="45.44441" lon="4.57695">
        <ele>565.87</ele>
        <time>2014-10-05T13:17:28Z</time>
      </trkpt>
      <trkpt lat="45.4444" lon="4.57698">
        <ele>564.91</ele>
        <time>2014-10-05T13:17:29Z</time>
      </trkpt>
      <trkpt lat="45.44439" lon="4.57706">
        <ele>562.51</ele>
        <time>2014-10-05T13:17:31Z</time>
      </trkpt>
      <trkpt lat="45.44439" lon="4.5771">
        <ele>562.03</ele>
        <time>2014-10-05T13:17:32Z</time>
      </trkpt>
      <trkpt lat="45.44442" lon="4.5772">
        <ele>559.62</ele>
        <time>2014-10-05T13:17:35Z</time>
      </trkpt>
      <trkpt lat="45.44445" lon="4.57723">
        <ele>559.62</ele>
        <time>2014-10-05T13:17:36Z</time>
      </trkpt>
      <trkpt lat="45.44449" lon="4.57734">
        <ele>557.22</ele>
        <time>2014-10-05T13:17:41Z</time>
      </trkpt>
      <trkpt lat="45.44439" lon="4.57736">
        <ele>554.82</ele>
        <time>2014-10-05T13:17:45Z</time>
      </trkpt>
      <trkpt lat="45.44432" lon="4.57733">
        <ele>553.38</ele>
        <time>2014-10-05T13:17:47Z</time>
      </trkpt>
      <trkpt lat="45.44428" lon="4.57734">
        <ele>552.9</ele>
        <time>2014-10-05T13:17:48Z</time>
      </trkpt>
      <trkpt lat="45.44424" lon="4.57737">
        <ele>552.9</ele>
        <time>2014-10-05T13:17:49Z</time>
      </trkpt>
      <trkpt lat="45.44421" lon="4.57743">
        <ele>552.41</ele>
        <time>2014-10-05T13:17:50Z</time>
      </trkpt>
      <trkpt lat="45.44418" lon="4.57749">
        <ele>552.9</ele>
        <time>2014-10-05T13:17:51Z</time>
      </trkpt>
      <trkpt lat="45.44406" lon="4.5777">
        <ele>552.9</ele>
        <time>2014-10-05T13:17:54Z</time>
      </trkpt>
      <trkpt lat="45.44347" lon="4.57869">
        <ele>552.9</ele>
        <time>2014-10-05T13:18:08Z</time>
      </trkpt>
      <trkpt lat="45.44275" lon="4.57995">
        <ele>552.41</ele>
        <time>2014-10-05T13:18:25Z</time>
      </trkpt>
      <trkpt lat="45.44247" lon="4.58041">
        <ele>551.45</ele>
        <time>2014-10-05T13:18:32Z</time>
      </trkpt>
      <trkpt lat="45.44244" lon="4.5804">
        <ele>551.45</ele>
        <time>2014-10-05T13:18:33Z</time>
      </trkpt>
      <trkpt lat="45.44241" lon="4.58036">
        <ele>551.93</ele>
        <time>2014-10-05T13:18:34Z</time>
      </trkpt>
      <trkpt lat="45.4424" lon="4.58031">
        <ele>551.93</ele>
        <time>2014-10-05T13:18:35Z</time>
      </trkpt>
      <trkpt lat="45.44239" lon="4.58025">
        <ele>550.97</ele>
        <time>2014-10-05T13:18:36Z</time>
      </trkpt>
      <trkpt lat="45.44237" lon="4.58021">
        <ele>550.97</ele>
        <time>2014-10-05T13:18:37Z</time>
      </trkpt>
      <trkpt lat="45.44234" lon="4.58017">
        <ele>550.97</ele>
        <time>2014-10-05T13:18:38Z</time>
      </trkpt>
      <trkpt lat="45.44231" lon="4.58014">
        <ele>551.45</ele>
        <time>2014-10-05T13:18:39Z</time>
      </trkpt>
      <trkpt lat="45.4423" lon="4.58012">
        <ele>551.45</ele>
        <time>2014-10-05T13:18:40Z</time>
      </trkpt>
      <trkpt lat="45.44228" lon="4.5801">
        <ele>551.93</ele>
        <time>2014-10-05T13:18:41Z</time>
      </trkpt>
      <trkpt lat="45.44226" lon="4.58008">
        <ele>553.38</ele>
        <time>2014-10-05T13:18:42Z</time>
      </trkpt>
      <trkpt lat="45.44225" lon="4.58005">
        <ele>553.38</ele>
        <time>2014-10-05T13:18:43Z</time>
      </trkpt>
      <trkpt lat="45.44224" lon="4.58001">
        <ele>553.38</ele>
        <time>2014-10-05T13:18:44Z</time>
      </trkpt>
      <trkpt lat="45.44222" lon="4.57991">
        <ele>553.86</ele>
        <time>2014-10-05T13:18:46Z</time>
      </trkpt>
      <trkpt lat="45.44221" lon="4.57985">
        <ele>553.86</ele>
        <time>2014-10-05T13:18:47Z</time>
      </trkpt>
      <trkpt lat="45.4422" lon="4.5798">
        <ele>553.86</ele>
        <time>2014-10-05T13:18:48Z</time>
      </trkpt>
      <trkpt lat="45.44218" lon="4.57975">
        <ele>553.86</ele>
        <time>2014-10-05T13:18:49Z</time>
      </trkpt>
      <trkpt lat="45.44217" lon="4.57972">
        <ele>553.86</ele>
        <time>2014-10-05T13:18:50Z</time>
      </trkpt>
      <trkpt lat="45.44215" lon="4.57969">
        <ele>553.38</ele>
        <time>2014-10-05T13:18:51Z</time>
      </trkpt>
      <trkpt lat="45.44213" lon="4.57967">
        <ele>553.38</ele>
        <time>2014-10-05T13:18:52Z</time>
      </trkpt>
      <trkpt lat="45.44211" lon="4.57965">
        <ele>553.38</ele>
        <time>2014-10-05T13:19:01Z</time>
      </trkpt>
      <trkpt lat="45.44206" lon="4.57963">
        <ele>553.38</ele>
        <time>2014-10-05T13:19:10Z</time>
      </trkpt>
      <trkpt lat="45.44205" lon="4.57961">
        <ele>553.38</ele>
        <time>2014-10-05T13:19:23Z</time>
      </trkpt>
      <trkpt lat="45.442" lon="4.5796">
        <ele>553.86</ele>
        <time>2014-10-05T13:19:34Z</time>
      </trkpt>
      <trkpt lat="45.44199" lon="4.57961">
        <ele>553.86</ele>
        <time>2014-10-05T13:19:45Z</time>
      </trkpt>
      <trkpt lat="45.44197" lon="4.57961">
        <ele>554.34</ele>
        <time>2014-10-05T13:19:58Z</time>
      </trkpt>
      <trkpt lat="45.44196" lon="4.57961">
        <ele>554.34</ele>
        <time>2014-10-05T13:20:13Z</time>
      </trkpt>
      <trkpt lat="45.44196" lon="4.57961">
        <ele>553.86</ele>
        <time>2014-10-05T13:20:37Z</time>
      </trkpt>
      <trkpt lat="45.44195" lon="4.57962">
        <ele>553.86</ele>
        <time>2014-10-05T13:20:56Z</time>
      </trkpt>
      <trkpt lat="45.44185" lon="4.57964">
        <ele>554.34</ele>
        <time>2014-10-05T13:21:10Z</time>
      </trkpt>
      <trkpt lat="45.44184" lon="4.57964">
        <ele>554.34</ele>
        <time>2014-10-05T13:21:23Z</time>
      </trkpt>
      <trkpt lat="45.44184" lon="4.57964">
        <ele>554.34</ele>
        <time>2014-10-05T13:21:40Z</time>
      </trkpt>
      <trkpt lat="45.44183" lon="4.57965">
        <ele>554.34</ele>
        <time>2014-10-05T13:21:56Z</time>
      </trkpt>
      <trkpt lat="45.44181" lon="4.57964">
        <ele>553.86</ele>
        <time>2014-10-05T13:22:10Z</time>
      </trkpt>
      <trkpt lat="45.44181" lon="4.57965">
        <ele>553.86</ele>
        <time>2014-10-05T13:22:28Z</time>
      </trkpt>
      <trkpt lat="45.44181" lon="4.57965">
        <ele>553.86</ele>
        <time>2014-10-05T13:22:54Z</time>
      </trkpt>
      <trkpt lat="45.44181" lon="4.57965">
        <ele>553.38</ele>
        <time>2014-10-05T13:23:13Z</time>
      </trkpt>
      <trkpt lat="45.44181" lon="4.57965">
        <ele>553.38</ele>
        <time>2014-10-05T13:23:40Z</time>
      </trkpt>
      <trkpt lat="45.44181" lon="4.57967">
        <ele>552.9</ele>
        <time>2014-10-05T13:24:00Z</time>
      </trkpt>
      <trkpt lat="45.4418" lon="4.57967">
        <ele>552.9</ele>
        <time>2014-10-05T13:24:14Z</time>
      </trkpt>
      <trkpt lat="45.4418" lon="4.57967">
        <ele>552.9</ele>
        <time>2014-10-05T13:24:31Z</time>
      </trkpt>
      <trkpt lat="45.4418" lon="4.57967">
        <ele>552.41</ele>
        <time>2014-10-05T13:24:53Z</time>
      </trkpt>
      <trkpt lat="45.4418" lon="4.57967">
        <ele>551.93</ele>
        <time>2014-10-05T13:25:20Z</time>
      </trkpt>
      <trkpt lat="45.4418" lon="4.57967">
        <ele>551.45</ele>
        <time>2014-10-05T13:25:40Z</time>
      </trkpt>
      <trkpt lat="45.44184" lon="4.57968">
        <ele>550.49</ele>
        <time>2014-10-05T13:25:51Z</time>
      </trkpt>
      <trkpt lat="45.44185" lon="4.57969">
        <ele>550.49</ele>
        <time>2014-10-05T13:26:09Z</time>
      </trkpt>
      <trkpt lat="45.44186" lon="4.5797">
        <ele>550.49</ele>
        <time>2014-10-05T13:26:23Z</time>
      </trkpt>
      <trkpt lat="45.44182" lon="4.57966">
        <ele>551.45</ele>
        <time>2014-10-05T13:26:35Z</time>
      </trkpt>
      <trkpt lat="45.44183" lon="4.57968">
        <ele>550.97</ele>
        <time>2014-10-05T13:26:39Z</time>
      </trkpt>
      <trkpt lat="45.44186" lon="4.57969">
        <ele>550.01</ele>
        <time>2014-10-05T13:26:52Z</time>
      </trkpt>
      <trkpt lat="45.44187" lon="4.57969">
        <ele>550.01</ele>
        <time>2014-10-05T13:27:10Z</time>
      </trkpt>
      <trkpt lat="45.4419" lon="4.57968">
        <ele>549.53</ele>
        <time>2014-10-05T13:27:20Z</time>
      </trkpt>
      <trkpt lat="45.4419" lon="4.57968">
        <ele>549.53</ele>
        <time>2014-10-05T13:27:38Z</time>
      </trkpt>
      <trkpt lat="45.4419" lon="4.57967">
        <ele>549.53</ele>
        <time>2014-10-05T13:27:57Z</time>
      </trkpt>
      <trkpt lat="45.44187" lon="4.57967">
        <ele>550.01</ele>
        <time>2014-10-05T13:28:09Z</time>
      </trkpt>
      <trkpt lat="45.44185" lon="4.57968">
        <ele>550.01</ele>
        <time>2014-10-05T13:28:18Z</time>
      </trkpt>
      <trkpt lat="45.44185" lon="4.57969">
        <ele>550.01</ele>
        <time>2014-10-05T13:28:36Z</time>
      </trkpt>
      <trkpt lat="45.44185" lon="4.57969">
        <ele>550.01</ele>
        <time>2014-10-05T13:28:56Z</time>
      </trkpt>
      <trkpt lat="45.44184" lon="4.57969">
        <ele>549.53</ele>
        <time>2014-10-05T13:29:11Z</time>
      </trkpt>
      <trkpt lat="45.44184" lon="4.57969">
        <ele>549.53</ele>
        <time>2014-10-05T13:29:24Z</time>
      </trkpt>
      <trkpt lat="45.44184" lon="4.57969">
        <ele>549.53</ele>
        <time>2014-10-05T13:29:42Z</time>
      </trkpt>
      <trkpt lat="45.44184" lon="4.57969">
        <ele>549.05</ele>
        <time>2014-10-05T13:30:02Z</time>
      </trkpt>
      <trkpt lat="45.44184" lon="4.57969">
        <ele>549.05</ele>
        <time>2014-10-05T13:30:22Z</time>
      </trkpt>
      <trkpt lat="45.44183" lon="4.57969">
        <ele>549.05</ele>
        <time>2014-10-05T13:30:33Z</time>
      </trkpt>
      <trkpt lat="45.44183" lon="4.57969">
        <ele>548.57</ele>
        <time>2014-10-05T13:30:56Z</time>
      </trkpt>
      <trkpt lat="45.44181" lon="4.5797">
        <ele>548.57</ele>
        <time>2014-10-05T13:31:07Z</time>
      </trkpt>
      <trkpt lat="45.4418" lon="4.5797">
        <ele>549.05</ele>
        <time>2014-10-05T13:31:11Z</time>
      </trkpt>
      <trkpt lat="45.44179" lon="4.57969">
        <ele>549.05</ele>
        <time>2014-10-05T13:31:12Z</time>
      </trkpt>
      <trkpt lat="45.44178" lon="4.57966">
        <ele>549.05</ele>
        <time>2014-10-05T13:31:13Z</time>
      </trkpt>
      <trkpt lat="45.44177" lon="4.57963">
        <ele>549.05</ele>
        <time>2014-10-05T13:31:14Z</time>
      </trkpt>
      <trkpt lat="45.44176" lon="4.57959">
        <ele>549.05</ele>
        <time>2014-10-05T13:31:15Z</time>
      </trkpt>
      <trkpt lat="45.44149" lon="4.57909">
        <ele>548.09</ele>
        <time>2014-10-05T13:31:27Z</time>
      </trkpt>
      <trkpt lat="45.44138" lon="4.57884">
        <ele>547.13</ele>
        <time>2014-10-05T13:31:32Z</time>
      </trkpt>
      <trkpt lat="45.44136" lon="4.57878">
        <ele>547.13</ele>
        <time>2014-10-05T13:31:33Z</time>
      </trkpt>
      <trkpt lat="45.44133" lon="4.57852">
        <ele>546.17</ele>
        <time>2014-10-05T13:31:42Z</time>
      </trkpt>
      <trkpt lat="45.44133" lon="4.5785">
        <ele>546.17</ele>
        <time>2014-10-05T13:31:44Z</time>
      </trkpt>
      <trkpt lat="45.44135" lon="4.57851">
        <ele>545.69</ele>
        <time>2014-10-05T13:31:47Z</time>
      </trkpt>
      <trkpt lat="45.44134" lon="4.57851">
        <ele>545.69</ele>
        <time>2014-10-05T13:31:59Z</time>
      </trkpt>
      <trkpt lat="45.44133" lon="4.5785">
        <ele>546.17</ele>
        <time>2014-10-05T13:32:03Z</time>
      </trkpt>
      <trkpt lat="45.44133" lon="4.57848">
        <ele>545.69</ele>
        <time>2014-10-05T13:32:04Z</time>
      </trkpt>
      <trkpt lat="45.44133" lon="4.57846">
        <ele>545.69</ele>
        <time>2014-10-05T13:32:06Z</time>
      </trkpt>
      <trkpt lat="45.44133" lon="4.57844">
        <ele>545.69</ele>
        <time>2014-10-05T13:32:07Z</time>
      </trkpt>
      <trkpt lat="45.44133" lon="4.5784">
        <ele>545.69</ele>
        <time>2014-10-05T13:32:10Z</time>
      </trkpt>
      <trkpt lat="45.44132" lon="4.57837">
        <ele>545.69</ele>
        <time>2014-10-05T13:32:21Z</time>
      </trkpt>
      <trkpt lat="45.44133" lon="4.57837">
        <ele>544.24</ele>
        <time>2014-10-05T13:32:31Z</time>
      </trkpt>
      <trkpt lat="45.44133" lon="4.57837">
        <ele>544.24</ele>
        <time>2014-10-05T13:32:45Z</time>
      </trkpt>
    </trkseg>
  </trk>
</gpx>